<?xml version="1.0" encoding="UTF-8"?>
<gpx version="1.1" creator="https://www.youtrack.es" xsi:schemaLocation="http://www.topografix.com/GPX/1/1 http://www.topografix.com/GPX/1/1/gpx.xsd http://www.garmin.com/xmlschemas/GpxExtensions/v3 http://www.garmin.com/xmlschemas/GpxExtensionsv3.xsd http://www.garmin.com/xmlschemas/TrackPointExtension/v1 http://www.garmin.com/xmlschemas/TrackPointExtensionv1.xsd" xmlns:gpxtpx="http://www.garmin.com/xmlschemas/TrackPointExtension/v1" xmlns:gpxx="http://www.garmin.com/xmlschemas/GpxExtensions/v3" xmlns:xsi="http://www.w3.org/2001/XMLSchema-instance">
  <metadata>
    <link href="https://www.youtrack.es">
      <text>YouTrack.es</text>
    </link>
    <time>2026-05-08T23:44:04Z</time>
  </metadata>
  <trk>
    <src>https://www.youtrack.es</src>
    <link href="https://www.youtrack.es/ruta/4588-jardin-botanico">
      <text>YouTrack.es</text>
    </link>
    <trkseg>
      <trkpt lat="36.75588166666667" lon="-4.42536">
        <ele>89.0</ele>
        <time>2019-03-08T09:17:46Z</time>
      </trkpt>
      <trkpt lat="36.755896666666665" lon="-4.42536">
        <ele>89.1</ele>
        <time>2019-03-08T09:17:47Z</time>
      </trkpt>
      <trkpt lat="36.755965" lon="-4.4254">
        <ele>91.3</ele>
        <time>2019-03-08T09:17:53Z</time>
      </trkpt>
      <trkpt lat="36.75604" lon="-4.425391666666667">
        <ele>92.3</ele>
        <time>2019-03-08T09:18:00Z</time>
      </trkpt>
      <trkpt lat="36.75610666666667" lon="-4.425396666666667">
        <ele>93.5</ele>
        <time>2019-03-08T09:18:07Z</time>
      </trkpt>
      <trkpt lat="36.75617" lon="-4.425448333333334">
        <ele>97.7</ele>
        <time>2019-03-08T09:18:14Z</time>
      </trkpt>
      <trkpt lat="36.756245" lon="-4.42546">
        <ele>98.8</ele>
        <time>2019-03-08T09:18:21Z</time>
      </trkpt>
      <trkpt lat="36.756315" lon="-4.425415">
        <ele>98.7</ele>
        <time>2019-03-08T09:18:25Z</time>
      </trkpt>
      <trkpt lat="36.756375" lon="-4.425345">
        <ele>97.3</ele>
        <time>2019-03-08T09:18:29Z</time>
      </trkpt>
      <trkpt lat="36.756455" lon="-4.425353333333334">
        <ele>97.7</ele>
        <time>2019-03-08T09:18:36Z</time>
      </trkpt>
      <trkpt lat="36.756535" lon="-4.42539">
        <ele>98.1</ele>
        <time>2019-03-08T09:18:43Z</time>
      </trkpt>
      <trkpt lat="36.756585" lon="-4.42547">
        <ele>100.0</ele>
        <time>2019-03-08T09:18:49Z</time>
      </trkpt>
      <trkpt lat="36.756636666666665" lon="-4.425535">
        <ele>101.7</ele>
        <time>2019-03-08T09:18:55Z</time>
      </trkpt>
      <trkpt lat="36.756705" lon="-4.42556">
        <ele>103.4</ele>
        <time>2019-03-08T09:19:02Z</time>
      </trkpt>
      <trkpt lat="36.75678666666667" lon="-4.425555">
        <ele>105.5</ele>
        <time>2019-03-08T09:19:07Z</time>
      </trkpt>
      <trkpt lat="36.75686" lon="-4.42551">
        <ele>104.9</ele>
        <time>2019-03-08T09:19:11Z</time>
      </trkpt>
      <trkpt lat="36.756945" lon="-4.425465">
        <ele>104.8</ele>
        <time>2019-03-08T09:19:16Z</time>
      </trkpt>
      <trkpt lat="36.75702" lon="-4.425455">
        <ele>104.6</ele>
        <time>2019-03-08T09:19:23Z</time>
      </trkpt>
      <trkpt lat="36.757095" lon="-4.42546">
        <ele>104.6</ele>
        <time>2019-03-08T09:19:30Z</time>
      </trkpt>
      <trkpt lat="36.757165" lon="-4.425445">
        <ele>103.8</ele>
        <time>2019-03-08T09:19:37Z</time>
      </trkpt>
      <trkpt lat="36.757235" lon="-4.425505">
        <ele>105.0</ele>
        <time>2019-03-08T09:19:44Z</time>
      </trkpt>
      <trkpt lat="36.75730166666666" lon="-4.425531666666667">
        <ele>105.5</ele>
        <time>2019-03-08T09:19:51Z</time>
      </trkpt>
      <trkpt lat="36.75737" lon="-4.425543333333334">
        <ele>105.6</ele>
        <time>2019-03-08T09:19:58Z</time>
      </trkpt>
      <trkpt lat="36.757445" lon="-4.425565">
        <ele>105.5</ele>
        <time>2019-03-08T09:20:05Z</time>
      </trkpt>
      <trkpt lat="36.75752" lon="-4.425586666666667">
        <ele>105.1</ele>
        <time>2019-03-08T09:20:11Z</time>
      </trkpt>
      <trkpt lat="36.7576" lon="-4.425605">
        <ele>104.9</ele>
        <time>2019-03-08T09:20:18Z</time>
      </trkpt>
      <trkpt lat="36.75767" lon="-4.4256166666666665">
        <ele>104.9</ele>
        <time>2019-03-08T09:20:25Z</time>
      </trkpt>
      <trkpt lat="36.75774666666667" lon="-4.425645">
        <ele>104.6</ele>
        <time>2019-03-08T09:20:32Z</time>
      </trkpt>
      <trkpt lat="36.757825" lon="-4.42567">
        <ele>105.1</ele>
        <time>2019-03-08T09:20:38Z</time>
      </trkpt>
      <trkpt lat="36.757905" lon="-4.42569">
        <ele>107.9</ele>
        <time>2019-03-08T09:20:45Z</time>
      </trkpt>
      <trkpt lat="36.75794" lon="-4.425715">
        <ele>107.2</ele>
        <time>2019-03-08T09:20:52Z</time>
      </trkpt>
      <trkpt lat="36.757975" lon="-4.425775">
        <ele>107.7</ele>
        <time>2019-03-08T09:20:59Z</time>
      </trkpt>
      <trkpt lat="36.758025" lon="-4.42581">
        <ele>109.1</ele>
        <time>2019-03-08T09:21:06Z</time>
      </trkpt>
      <trkpt lat="36.75810666666667" lon="-4.425811666666666">
        <ele>109.2</ele>
        <time>2019-03-08T09:21:13Z</time>
      </trkpt>
      <trkpt lat="36.75819" lon="-4.425821666666667">
        <ele>109.5</ele>
        <time>2019-03-08T09:21:20Z</time>
      </trkpt>
      <trkpt lat="36.75826833333333" lon="-4.42582">
        <ele>110.6</ele>
        <time>2019-03-08T09:21:27Z</time>
      </trkpt>
      <trkpt lat="36.758338333333334" lon="-4.425825">
        <ele>109.5</ele>
        <time>2019-03-08T09:21:34Z</time>
      </trkpt>
      <trkpt lat="36.75842" lon="-4.425856666666666">
        <ele>108.5</ele>
        <time>2019-03-08T09:21:40Z</time>
      </trkpt>
      <trkpt lat="36.758485" lon="-4.425905">
        <ele>106.9</ele>
        <time>2019-03-08T09:21:46Z</time>
      </trkpt>
      <trkpt lat="36.758561666666665" lon="-4.425935">
        <ele>106.9</ele>
        <time>2019-03-08T09:21:53Z</time>
      </trkpt>
      <trkpt lat="36.758646666666664" lon="-4.425915">
        <ele>106.3</ele>
        <time>2019-03-08T09:22:00Z</time>
      </trkpt>
      <trkpt lat="36.75871166666667" lon="-4.4258766666666665">
        <ele>106.2</ele>
        <time>2019-03-08T09:22:06Z</time>
      </trkpt>
      <trkpt lat="36.758786666666666" lon="-4.42584">
        <ele>105.6</ele>
        <time>2019-03-08T09:22:13Z</time>
      </trkpt>
      <trkpt lat="36.758855" lon="-4.425805">
        <ele>105.3</ele>
        <time>2019-03-08T09:22:19Z</time>
      </trkpt>
      <trkpt lat="36.758925" lon="-4.425765">
        <ele>105.2</ele>
        <time>2019-03-08T09:22:26Z</time>
      </trkpt>
      <trkpt lat="36.75899666666667" lon="-4.4257333333333335">
        <ele>104.7</ele>
        <time>2019-03-08T09:22:32Z</time>
      </trkpt>
      <trkpt lat="36.75907" lon="-4.4256866666666665">
        <ele>104.3</ele>
        <time>2019-03-08T09:22:39Z</time>
      </trkpt>
      <trkpt lat="36.759145" lon="-4.42567">
        <ele>104.1</ele>
        <time>2019-03-08T09:22:45Z</time>
      </trkpt>
      <trkpt lat="36.75921" lon="-4.425625">
        <ele>104.3</ele>
        <time>2019-03-08T09:22:51Z</time>
      </trkpt>
      <trkpt lat="36.759276666666665" lon="-4.42559">
        <ele>104.6</ele>
        <time>2019-03-08T09:22:57Z</time>
      </trkpt>
      <trkpt lat="36.75935" lon="-4.425541666666667">
        <ele>104.0</ele>
        <time>2019-03-08T09:23:04Z</time>
      </trkpt>
      <trkpt lat="36.75943" lon="-4.425505">
        <ele>104.7</ele>
        <time>2019-03-08T09:23:11Z</time>
      </trkpt>
      <trkpt lat="36.759495" lon="-4.425465">
        <ele>104.5</ele>
        <time>2019-03-08T09:23:17Z</time>
      </trkpt>
      <trkpt lat="36.75956" lon="-4.425425">
        <ele>105.0</ele>
        <time>2019-03-08T09:23:23Z</time>
      </trkpt>
      <trkpt lat="36.759635" lon="-4.425395">
        <ele>105.3</ele>
        <time>2019-03-08T09:23:30Z</time>
      </trkpt>
      <trkpt lat="36.75971" lon="-4.42535">
        <ele>105.3</ele>
        <time>2019-03-08T09:23:37Z</time>
      </trkpt>
      <trkpt lat="36.759785" lon="-4.425325">
        <ele>106.9</ele>
        <time>2019-03-08T09:23:44Z</time>
      </trkpt>
      <trkpt lat="36.759856666666664" lon="-4.425315">
        <ele>106.5</ele>
        <time>2019-03-08T09:23:50Z</time>
      </trkpt>
      <trkpt lat="36.75992333333333" lon="-4.42528">
        <ele>106.6</ele>
        <time>2019-03-08T09:23:55Z</time>
      </trkpt>
      <trkpt lat="36.75999" lon="-4.425231666666667">
        <ele>106.0</ele>
        <time>2019-03-08T09:24:01Z</time>
      </trkpt>
      <trkpt lat="36.760065" lon="-4.4252">
        <ele>106.3</ele>
        <time>2019-03-08T09:24:08Z</time>
      </trkpt>
      <trkpt lat="36.76014" lon="-4.42517">
        <ele>106.8</ele>
        <time>2019-03-08T09:24:15Z</time>
      </trkpt>
      <trkpt lat="36.760215" lon="-4.425136666666667">
        <ele>107.2</ele>
        <time>2019-03-08T09:24:22Z</time>
      </trkpt>
      <trkpt lat="36.760285" lon="-4.425095">
        <ele>107.9</ele>
        <time>2019-03-08T09:24:29Z</time>
      </trkpt>
      <trkpt lat="36.76035" lon="-4.42503">
        <ele>107.8</ele>
        <time>2019-03-08T09:24:36Z</time>
      </trkpt>
      <trkpt lat="36.760415" lon="-4.424975">
        <ele>107.7</ele>
        <time>2019-03-08T09:24:43Z</time>
      </trkpt>
      <trkpt lat="36.76048" lon="-4.424908333333334">
        <ele>108.0</ele>
        <time>2019-03-08T09:24:50Z</time>
      </trkpt>
      <trkpt lat="36.76055" lon="-4.424855">
        <ele>108.3</ele>
        <time>2019-03-08T09:24:57Z</time>
      </trkpt>
      <trkpt lat="36.760616666666664" lon="-4.4247966666666665">
        <ele>108.4</ele>
        <time>2019-03-08T09:25:04Z</time>
      </trkpt>
      <trkpt lat="36.76068333333333" lon="-4.424746666666667">
        <ele>108.8</ele>
        <time>2019-03-08T09:25:10Z</time>
      </trkpt>
      <trkpt lat="36.760753333333334" lon="-4.424691666666667">
        <ele>108.9</ele>
        <time>2019-03-08T09:25:17Z</time>
      </trkpt>
      <trkpt lat="36.76082" lon="-4.4246316666666665">
        <ele>109.4</ele>
        <time>2019-03-08T09:25:24Z</time>
      </trkpt>
      <trkpt lat="36.760885" lon="-4.424575">
        <ele>109.3</ele>
        <time>2019-03-08T09:25:31Z</time>
      </trkpt>
      <trkpt lat="36.76095" lon="-4.42453">
        <ele>109.4</ele>
        <time>2019-03-08T09:25:37Z</time>
      </trkpt>
      <trkpt lat="36.76101" lon="-4.42448">
        <ele>109.7</ele>
        <time>2019-03-08T09:25:43Z</time>
      </trkpt>
      <trkpt lat="36.761075" lon="-4.42443">
        <ele>109.8</ele>
        <time>2019-03-08T09:25:49Z</time>
      </trkpt>
      <trkpt lat="36.76114166666667" lon="-4.42439">
        <ele>109.7</ele>
        <time>2019-03-08T09:25:55Z</time>
      </trkpt>
      <trkpt lat="36.761205" lon="-4.424341666666667">
        <ele>109.8</ele>
        <time>2019-03-08T09:26:01Z</time>
      </trkpt>
      <trkpt lat="36.76127666666667" lon="-4.424296666666667">
        <ele>109.9</ele>
        <time>2019-03-08T09:26:08Z</time>
      </trkpt>
      <trkpt lat="36.76135166666667" lon="-4.424255">
        <ele>109.9</ele>
        <time>2019-03-08T09:26:15Z</time>
      </trkpt>
      <trkpt lat="36.76143" lon="-4.424225">
        <ele>109.9</ele>
        <time>2019-03-08T09:26:22Z</time>
      </trkpt>
      <trkpt lat="36.761496666666666" lon="-4.424265">
        <ele>110.2</ele>
        <time>2019-03-08T09:26:29Z</time>
      </trkpt>
      <trkpt lat="36.761525" lon="-4.42433">
        <ele>111.3</ele>
        <time>2019-03-08T09:26:36Z</time>
      </trkpt>
      <trkpt lat="36.761555" lon="-4.424366666666667">
        <ele>109.9</ele>
        <time>2019-03-08T09:26:43Z</time>
      </trkpt>
      <trkpt lat="36.761588333333336" lon="-4.42441">
        <ele>108.0</ele>
        <time>2019-03-08T09:26:50Z</time>
      </trkpt>
      <trkpt lat="36.761625" lon="-4.424505">
        <ele>103.0</ele>
        <time>2019-03-08T09:26:57Z</time>
      </trkpt>
      <trkpt lat="36.76164" lon="-4.424595">
        <ele>99.1</ele>
        <time>2019-03-08T09:27:01Z</time>
      </trkpt>
      <trkpt lat="36.76164" lon="-4.424696666666667">
        <ele>108.0</ele>
        <time>2019-03-08T09:27:04Z</time>
      </trkpt>
      <trkpt lat="36.761635" lon="-4.42479">
        <ele>109.4</ele>
        <time>2019-03-08T09:27:08Z</time>
      </trkpt>
      <trkpt lat="36.7616" lon="-4.42488">
        <ele>108.3</ele>
        <time>2019-03-08T09:27:14Z</time>
      </trkpt>
      <trkpt lat="36.76153" lon="-4.424905">
        <ele>107.4</ele>
        <time>2019-03-08T09:27:21Z</time>
      </trkpt>
      <trkpt lat="36.761455" lon="-4.42493">
        <ele>107.5</ele>
        <time>2019-03-08T09:27:28Z</time>
      </trkpt>
      <trkpt lat="36.76138" lon="-4.424955">
        <ele>108.8</ele>
        <time>2019-03-08T09:27:35Z</time>
      </trkpt>
      <trkpt lat="36.76131" lon="-4.42498">
        <ele>109.4</ele>
        <time>2019-03-08T09:27:41Z</time>
      </trkpt>
      <trkpt lat="36.761225" lon="-4.425011666666666">
        <ele>109.7</ele>
        <time>2019-03-08T09:27:47Z</time>
      </trkpt>
      <trkpt lat="36.761195" lon="-4.4251016666666665">
        <ele>109.9</ele>
        <time>2019-03-08T09:27:54Z</time>
      </trkpt>
      <trkpt lat="36.76112" lon="-4.425126666666666">
        <ele>110.3</ele>
        <time>2019-03-08T09:28:01Z</time>
      </trkpt>
      <trkpt lat="36.76105" lon="-4.425155">
        <ele>110.3</ele>
        <time>2019-03-08T09:28:07Z</time>
      </trkpt>
      <trkpt lat="36.76097166666667" lon="-4.4251716666666665">
        <ele>110.4</ele>
        <time>2019-03-08T09:28:14Z</time>
      </trkpt>
      <trkpt lat="36.76089" lon="-4.4252">
        <ele>110.6</ele>
        <time>2019-03-08T09:28:21Z</time>
      </trkpt>
      <trkpt lat="36.760815" lon="-4.425245">
        <ele>110.4</ele>
        <time>2019-03-08T09:28:28Z</time>
      </trkpt>
      <trkpt lat="36.760751666666664" lon="-4.425295">
        <ele>110.6</ele>
        <time>2019-03-08T09:28:35Z</time>
      </trkpt>
      <trkpt lat="36.760695" lon="-4.425356666666667">
        <ele>110.8</ele>
        <time>2019-03-08T09:28:41Z</time>
      </trkpt>
      <trkpt lat="36.76063" lon="-4.425391666666667">
        <ele>112.1</ele>
        <time>2019-03-08T09:28:48Z</time>
      </trkpt>
      <trkpt lat="36.760555" lon="-4.42544">
        <ele>111.9</ele>
        <time>2019-03-08T09:28:55Z</time>
      </trkpt>
      <trkpt lat="36.760495" lon="-4.425505">
        <ele>111.6</ele>
        <time>2019-03-08T09:29:01Z</time>
      </trkpt>
      <trkpt lat="36.760445" lon="-4.425555">
        <ele>111.6</ele>
        <time>2019-03-08T09:29:08Z</time>
      </trkpt>
      <trkpt lat="36.760385" lon="-4.425615">
        <ele>112.2</ele>
        <time>2019-03-08T09:29:14Z</time>
      </trkpt>
      <trkpt lat="36.760326666666664" lon="-4.42566">
        <ele>113.6</ele>
        <time>2019-03-08T09:29:21Z</time>
      </trkpt>
      <trkpt lat="36.76028" lon="-4.425746666666667">
        <ele>111.2</ele>
        <time>2019-03-08T09:29:28Z</time>
      </trkpt>
      <trkpt lat="36.760305" lon="-4.42584">
        <ele>109.7</ele>
        <time>2019-03-08T09:29:32Z</time>
      </trkpt>
      <trkpt lat="36.76035" lon="-4.42584">
        <ele>111.3</ele>
        <time>2019-03-08T09:29:39Z</time>
      </trkpt>
      <trkpt lat="36.760376666666666" lon="-4.425875">
        <ele>110.7</ele>
        <time>2019-03-08T09:29:46Z</time>
      </trkpt>
      <trkpt lat="36.760375" lon="-4.425885">
        <ele>111.2</ele>
        <time>2019-03-08T09:29:53Z</time>
      </trkpt>
      <trkpt lat="36.760395" lon="-4.425885">
        <ele>112.0</ele>
        <time>2019-03-08T09:30:00Z</time>
      </trkpt>
      <trkpt lat="36.76035666666667" lon="-4.425905">
        <ele>113.1</ele>
        <time>2019-03-08T09:30:17Z</time>
      </trkpt>
      <trkpt lat="36.76034166666667" lon="-4.425915">
        <ele>112.7</ele>
        <time>2019-03-08T09:30:52Z</time>
      </trkpt>
      <trkpt lat="36.76035" lon="-4.42593">
        <ele>112.9</ele>
        <time>2019-03-08T09:30:59Z</time>
      </trkpt>
      <trkpt lat="36.760378333333335" lon="-4.425906666666667">
        <ele>112.0</ele>
        <time>2019-03-08T09:31:13Z</time>
      </trkpt>
      <trkpt lat="36.76036166666667" lon="-4.42593">
        <ele>110.3</ele>
        <time>2019-03-08T09:31:27Z</time>
      </trkpt>
      <trkpt lat="36.760355" lon="-4.42597">
        <ele>110.3</ele>
        <time>2019-03-08T09:31:34Z</time>
      </trkpt>
      <trkpt lat="36.760371666666664" lon="-4.425965">
        <ele>109.7</ele>
        <time>2019-03-08T09:31:41Z</time>
      </trkpt>
      <trkpt lat="36.760375" lon="-4.425995">
        <ele>106.7</ele>
        <time>2019-03-08T09:32:10Z</time>
      </trkpt>
      <trkpt lat="36.760335" lon="-4.42597">
        <ele>106.5</ele>
        <time>2019-03-08T09:32:17Z</time>
      </trkpt>
      <trkpt lat="36.76035" lon="-4.4260166666666665">
        <ele>106.8</ele>
        <time>2019-03-08T09:32:24Z</time>
      </trkpt>
      <trkpt lat="36.7604" lon="-4.426026666666667">
        <ele>106.5</ele>
        <time>2019-03-08T09:32:31Z</time>
      </trkpt>
      <trkpt lat="36.76045" lon="-4.426035">
        <ele>106.3</ele>
        <time>2019-03-08T09:32:38Z</time>
      </trkpt>
      <trkpt lat="36.760515" lon="-4.42607">
        <ele>106.0</ele>
        <time>2019-03-08T09:32:45Z</time>
      </trkpt>
      <trkpt lat="36.760585" lon="-4.426105">
        <ele>106.4</ele>
        <time>2019-03-08T09:32:52Z</time>
      </trkpt>
      <trkpt lat="36.76063" lon="-4.426155">
        <ele>106.2</ele>
        <time>2019-03-08T09:32:59Z</time>
      </trkpt>
      <trkpt lat="36.760665" lon="-4.42622">
        <ele>107.0</ele>
        <time>2019-03-08T09:33:06Z</time>
      </trkpt>
      <trkpt lat="36.760665" lon="-4.4262733333333335">
        <ele>109.1</ele>
        <time>2019-03-08T09:33:13Z</time>
      </trkpt>
      <trkpt lat="36.760695" lon="-4.42635">
        <ele>110.8</ele>
        <time>2019-03-08T09:33:20Z</time>
      </trkpt>
      <trkpt lat="36.760711666666666" lon="-4.42642">
        <ele>111.9</ele>
        <time>2019-03-08T09:33:27Z</time>
      </trkpt>
      <trkpt lat="36.76074" lon="-4.42649">
        <ele>112.6</ele>
        <time>2019-03-08T09:33:34Z</time>
      </trkpt>
      <trkpt lat="36.760745" lon="-4.42654">
        <ele>112.9</ele>
        <time>2019-03-08T09:33:41Z</time>
      </trkpt>
      <trkpt lat="36.760745" lon="-4.42659">
        <ele>115.0</ele>
        <time>2019-03-08T09:33:48Z</time>
      </trkpt>
      <trkpt lat="36.76077333333333" lon="-4.4266266666666665">
        <ele>116.2</ele>
        <time>2019-03-08T09:33:55Z</time>
      </trkpt>
      <trkpt lat="36.760815" lon="-4.426695">
        <ele>117.5</ele>
        <time>2019-03-08T09:34:02Z</time>
      </trkpt>
      <trkpt lat="36.76087166666667" lon="-4.42676">
        <ele>118.6</ele>
        <time>2019-03-08T09:34:07Z</time>
      </trkpt>
      <trkpt lat="36.760925" lon="-4.426801666666667">
        <ele>118.8</ele>
        <time>2019-03-08T09:34:14Z</time>
      </trkpt>
      <trkpt lat="36.76099" lon="-4.426801666666667">
        <ele>118.1</ele>
        <time>2019-03-08T09:34:21Z</time>
      </trkpt>
      <trkpt lat="36.761066666666665" lon="-4.426805">
        <ele>121.6</ele>
        <time>2019-03-08T09:34:28Z</time>
      </trkpt>
      <trkpt lat="36.761135" lon="-4.426845">
        <ele>120.5</ele>
        <time>2019-03-08T09:34:35Z</time>
      </trkpt>
      <trkpt lat="36.761165" lon="-4.42687">
        <ele>123.4</ele>
        <time>2019-03-08T09:34:42Z</time>
      </trkpt>
      <trkpt lat="36.761245" lon="-4.42687">
        <ele>125.4</ele>
        <time>2019-03-08T09:34:49Z</time>
      </trkpt>
      <trkpt lat="36.76132" lon="-4.42684">
        <ele>125.3</ele>
        <time>2019-03-08T09:34:56Z</time>
      </trkpt>
      <trkpt lat="36.761345" lon="-4.426825">
        <ele>125.6</ele>
        <time>2019-03-08T09:35:03Z</time>
      </trkpt>
      <trkpt lat="36.76132666666667" lon="-4.4268133333333335">
        <ele>126.7</ele>
        <time>2019-03-08T09:35:10Z</time>
      </trkpt>
      <trkpt lat="36.7614" lon="-4.4268">
        <ele>125.4</ele>
        <time>2019-03-08T09:35:15Z</time>
      </trkpt>
      <trkpt lat="36.761475" lon="-4.42679">
        <ele>124.0</ele>
        <time>2019-03-08T09:35:22Z</time>
      </trkpt>
      <trkpt lat="36.761545" lon="-4.426735">
        <ele>121.9</ele>
        <time>2019-03-08T09:35:29Z</time>
      </trkpt>
      <trkpt lat="36.761601666666664" lon="-4.426655">
        <ele>120.5</ele>
        <time>2019-03-08T09:35:34Z</time>
      </trkpt>
      <trkpt lat="36.76163" lon="-4.426565">
        <ele>119.5</ele>
        <time>2019-03-08T09:35:39Z</time>
      </trkpt>
      <trkpt lat="36.76166" lon="-4.42648">
        <ele>119.9</ele>
        <time>2019-03-08T09:35:46Z</time>
      </trkpt>
      <trkpt lat="36.7617" lon="-4.4264">
        <ele>120.1</ele>
        <time>2019-03-08T09:35:53Z</time>
      </trkpt>
      <trkpt lat="36.76172" lon="-4.42633">
        <ele>121.5</ele>
        <time>2019-03-08T09:36:00Z</time>
      </trkpt>
      <trkpt lat="36.761735" lon="-4.426351666666666">
        <ele>124.0</ele>
        <time>2019-03-08T09:36:07Z</time>
      </trkpt>
      <trkpt lat="36.76171" lon="-4.426385">
        <ele>120.5</ele>
        <time>2019-03-08T09:36:14Z</time>
      </trkpt>
      <trkpt lat="36.761676666666666" lon="-4.42639">
        <ele>118.7</ele>
        <time>2019-03-08T09:36:21Z</time>
      </trkpt>
      <trkpt lat="36.76166" lon="-4.426386666666667">
        <ele>118.2</ele>
        <time>2019-03-08T09:36:28Z</time>
      </trkpt>
      <trkpt lat="36.76166166666667" lon="-4.426386666666667">
        <ele>119.2</ele>
        <time>2019-03-08T09:36:35Z</time>
      </trkpt>
      <trkpt lat="36.761715" lon="-4.426336666666667">
        <ele>120.7</ele>
        <time>2019-03-08T09:36:42Z</time>
      </trkpt>
      <trkpt lat="36.76174" lon="-4.42629">
        <ele>121.3</ele>
        <time>2019-03-08T09:36:49Z</time>
      </trkpt>
      <trkpt lat="36.76175" lon="-4.426185">
        <ele>120.4</ele>
        <time>2019-03-08T09:36:55Z</time>
      </trkpt>
      <trkpt lat="36.76177" lon="-4.426095">
        <ele>119.3</ele>
        <time>2019-03-08T09:37:01Z</time>
      </trkpt>
      <trkpt lat="36.761805" lon="-4.42606">
        <ele>119.4</ele>
        <time>2019-03-08T09:37:08Z</time>
      </trkpt>
      <trkpt lat="36.76181" lon="-4.426071666666667">
        <ele>119.5</ele>
        <time>2019-03-08T09:37:15Z</time>
      </trkpt>
      <trkpt lat="36.761785" lon="-4.426125">
        <ele>120.4</ele>
        <time>2019-03-08T09:37:22Z</time>
      </trkpt>
      <trkpt lat="36.761855" lon="-4.42619">
        <ele>121.7</ele>
        <time>2019-03-08T09:37:28Z</time>
      </trkpt>
      <trkpt lat="36.761845" lon="-4.426176666666667">
        <ele>120.9</ele>
        <time>2019-03-08T09:37:35Z</time>
      </trkpt>
      <trkpt lat="36.761835" lon="-4.426185">
        <ele>122.5</ele>
        <time>2019-03-08T09:37:42Z</time>
      </trkpt>
      <trkpt lat="36.761865" lon="-4.426145">
        <ele>121.4</ele>
        <time>2019-03-08T09:37:50Z</time>
      </trkpt>
      <trkpt lat="36.761916666666664" lon="-4.426095">
        <ele>121.6</ele>
        <time>2019-03-08T09:37:57Z</time>
      </trkpt>
      <trkpt lat="36.761968333333336" lon="-4.426006666666667">
        <ele>119.8</ele>
        <time>2019-03-08T09:38:02Z</time>
      </trkpt>
      <trkpt lat="36.76199" lon="-4.425971666666666">
        <ele>119.9</ele>
        <time>2019-03-08T09:38:09Z</time>
      </trkpt>
      <trkpt lat="36.76198" lon="-4.4259216666666665">
        <ele>118.9</ele>
        <time>2019-03-08T09:38:30Z</time>
      </trkpt>
      <trkpt lat="36.76196" lon="-4.425923333333333">
        <ele>118.3</ele>
        <time>2019-03-08T09:38:37Z</time>
      </trkpt>
      <trkpt lat="36.76190666666667" lon="-4.425955">
        <ele>117.8</ele>
        <time>2019-03-08T09:38:51Z</time>
      </trkpt>
      <trkpt lat="36.76185" lon="-4.42603">
        <ele>115.7</ele>
        <time>2019-03-08T09:38:57Z</time>
      </trkpt>
      <trkpt lat="36.761825" lon="-4.426015">
        <ele>115.5</ele>
        <time>2019-03-08T09:39:04Z</time>
      </trkpt>
      <trkpt lat="36.76185" lon="-4.426035">
        <ele>116.3</ele>
        <time>2019-03-08T09:39:11Z</time>
      </trkpt>
      <trkpt lat="36.76187" lon="-4.425995">
        <ele>118.6</ele>
        <time>2019-03-08T09:39:18Z</time>
      </trkpt>
      <trkpt lat="36.761865" lon="-4.4259466666666665">
        <ele>119.7</ele>
        <time>2019-03-08T09:39:25Z</time>
      </trkpt>
      <trkpt lat="36.76187" lon="-4.42592">
        <ele>120.3</ele>
        <time>2019-03-08T09:39:32Z</time>
      </trkpt>
      <trkpt lat="36.761826666666664" lon="-4.42592">
        <ele>121.4</ele>
        <time>2019-03-08T09:39:39Z</time>
      </trkpt>
      <trkpt lat="36.7618" lon="-4.425945">
        <ele>119.9</ele>
        <time>2019-03-08T09:39:46Z</time>
      </trkpt>
      <trkpt lat="36.761865" lon="-4.425856666666666">
        <ele>118.4</ele>
        <time>2019-03-08T09:39:52Z</time>
      </trkpt>
      <trkpt lat="36.761865" lon="-4.42579">
        <ele>120.6</ele>
        <time>2019-03-08T09:39:59Z</time>
      </trkpt>
      <trkpt lat="36.76184" lon="-4.425805">
        <ele>120.3</ele>
        <time>2019-03-08T09:40:06Z</time>
      </trkpt>
      <trkpt lat="36.76191333333333" lon="-4.4258066666666664">
        <ele>119.8</ele>
        <time>2019-03-08T09:40:20Z</time>
      </trkpt>
      <trkpt lat="36.76190666666667" lon="-4.42587">
        <ele>117.4</ele>
        <time>2019-03-08T09:40:27Z</time>
      </trkpt>
      <trkpt lat="36.761925" lon="-4.425875">
        <ele>113.0</ele>
        <time>2019-03-08T09:40:34Z</time>
      </trkpt>
      <trkpt lat="36.761975" lon="-4.425865">
        <ele>110.1</ele>
        <time>2019-03-08T09:40:41Z</time>
      </trkpt>
      <trkpt lat="36.76196" lon="-4.425866666666667">
        <ele>112.9</ele>
        <time>2019-03-08T09:40:48Z</time>
      </trkpt>
      <trkpt lat="36.761995" lon="-4.425885">
        <ele>116.8</ele>
        <time>2019-03-08T09:40:57Z</time>
      </trkpt>
      <trkpt lat="36.759879" lon="-4.426276">
        <ele>45.516</ele>
        <time>2018-04-08T09:26:05Z</time>
      </trkpt>
      <trkpt lat="36.759887" lon="-4.426217">
        <ele>45.576</ele>
        <time>2018-04-08T09:26:23Z</time>
      </trkpt>
      <trkpt lat="36.759899" lon="-4.426160">
        <ele>45.513</ele>
        <time>2018-04-08T09:26:30Z</time>
      </trkpt>
      <trkpt lat="36.759935" lon="-4.426104">
        <ele>45.508</ele>
        <time>2018-04-08T09:26:36Z</time>
      </trkpt>
      <trkpt lat="36.759969" lon="-4.426067">
        <ele>45.523</ele>
        <time>2018-04-08T09:26:41Z</time>
      </trkpt>
      <trkpt lat="36.760013" lon="-4.426024">
        <ele>45.574</ele>
        <time>2018-04-08T09:26:47Z</time>
      </trkpt>
      <trkpt lat="36.760044" lon="-4.425982">
        <ele>45.559</ele>
        <time>2018-04-08T09:26:52Z</time>
      </trkpt>
      <trkpt lat="36.760085" lon="-4.425958">
        <ele>45.544</ele>
        <time>2018-04-08T09:26:59Z</time>
      </trkpt>
      <trkpt lat="36.760129" lon="-4.425922">
        <ele>45.588</ele>
        <time>2018-04-08T09:27:05Z</time>
      </trkpt>
      <trkpt lat="36.760179" lon="-4.425904">
        <ele>45.597</ele>
        <time>2018-04-08T09:27:10Z</time>
      </trkpt>
      <trkpt lat="36.760225" lon="-4.425879">
        <ele>45.546</ele>
        <time>2018-04-08T09:27:17Z</time>
      </trkpt>
      <trkpt lat="36.760264" lon="-4.425908">
        <ele>45.587</ele>
        <time>2018-04-08T09:28:01Z</time>
      </trkpt>
      <trkpt lat="36.760262" lon="-4.425850">
        <ele>45.566</ele>
        <time>2018-04-08T09:32:33Z</time>
      </trkpt>
      <trkpt lat="36.760303" lon="-4.425879">
        <ele>45.529</ele>
        <time>2018-04-08T09:39:04Z</time>
      </trkpt>
      <trkpt lat="36.760355" lon="-4.425859">
        <ele>45.521</ele>
        <time>2018-04-08T09:39:37Z</time>
      </trkpt>
      <trkpt lat="36.760395" lon="-4.425919">
        <ele>45.508</ele>
        <time>2018-04-08T09:40:34Z</time>
      </trkpt>
      <trkpt lat="36.760397" lon="-4.425838">
        <ele>46.218</ele>
        <time>2018-04-08T09:43:44Z</time>
      </trkpt>
      <trkpt lat="36.760368" lon="-4.425882">
        <ele>48.159</ele>
        <time>2018-04-08T09:46:21Z</time>
      </trkpt>
      <trkpt lat="36.760391" lon="-4.425932">
        <ele>46.544</ele>
        <time>2018-04-08T09:46:52Z</time>
      </trkpt>
      <trkpt lat="36.760343" lon="-4.425919">
        <ele>46.139</ele>
        <time>2018-04-08T09:47:36Z</time>
      </trkpt>
      <trkpt lat="36.760284" lon="-4.425921">
        <ele>46.333</ele>
        <time>2018-04-08T09:48:04Z</time>
      </trkpt>
      <trkpt lat="36.760326" lon="-4.425960">
        <ele>45.432</ele>
        <time>2018-04-08T09:48:16Z</time>
      </trkpt>
      <trkpt lat="36.760336" lon="-4.426031">
        <ele>46.911</ele>
        <time>2018-04-08T09:51:37Z</time>
      </trkpt>
      <trkpt lat="36.760382" lon="-4.426027">
        <ele>45.922</ele>
        <time>2018-04-08T09:51:59Z</time>
      </trkpt>
      <trkpt lat="36.760427" lon="-4.426036">
        <ele>46.537</ele>
        <time>2018-04-08T09:52:11Z</time>
      </trkpt>
      <trkpt lat="36.760476" lon="-4.425999">
        <ele>48.149</ele>
        <time>2018-04-08T09:53:19Z</time>
      </trkpt>
      <trkpt lat="36.760518" lon="-4.426045">
        <ele>47.313</ele>
        <time>2018-04-08T09:53:23Z</time>
      </trkpt>
      <trkpt lat="36.760587" lon="-4.426119">
        <ele>48.708</ele>
        <time>2018-04-08T09:53:40Z</time>
      </trkpt>
      <trkpt lat="36.760623" lon="-4.426049">
        <ele>47.765</ele>
        <time>2018-04-08T10:00:48Z</time>
      </trkpt>
      <trkpt lat="36.760672" lon="-4.426087">
        <ele>49.776</ele>
        <time>2018-04-08T10:01:24Z</time>
      </trkpt>
      <trkpt lat="36.760717" lon="-4.426080">
        <ele>49.221</ele>
        <time>2018-04-08T10:01:34Z</time>
      </trkpt>
      <trkpt lat="36.760756" lon="-4.426110">
        <ele>49.846</ele>
        <time>2018-04-08T10:01:38Z</time>
      </trkpt>
      <trkpt lat="36.760794" lon="-4.426154">
        <ele>49.850</ele>
        <time>2018-04-08T10:01:43Z</time>
      </trkpt>
      <trkpt lat="36.760816" lon="-4.426211">
        <ele>51.479</ele>
        <time>2018-04-08T10:01:49Z</time>
      </trkpt>
      <trkpt lat="36.760831" lon="-4.426265">
        <ele>50.368</ele>
        <time>2018-04-08T10:01:52Z</time>
      </trkpt>
      <trkpt lat="36.760846" lon="-4.426320">
        <ele>52.549</ele>
        <time>2018-04-08T10:01:55Z</time>
      </trkpt>
      <trkpt lat="36.760853" lon="-4.426385">
        <ele>50.783</ele>
        <time>2018-04-08T10:02:01Z</time>
      </trkpt>
      <trkpt lat="36.760831" lon="-4.426462">
        <ele>50.825</ele>
        <time>2018-04-08T10:02:49Z</time>
      </trkpt>
      <trkpt lat="36.760786" lon="-4.426464">
        <ele>52.717</ele>
        <time>2018-04-08T10:03:07Z</time>
      </trkpt>
      <trkpt lat="36.760739" lon="-4.426464">
        <ele>54.408</ele>
        <time>2018-04-08T10:03:19Z</time>
      </trkpt>
      <trkpt lat="36.760694" lon="-4.426440">
        <ele>53.910</ele>
        <time>2018-04-08T10:03:31Z</time>
      </trkpt>
      <trkpt lat="36.760651" lon="-4.426422">
        <ele>54.541</ele>
        <time>2018-04-08T10:03:39Z</time>
      </trkpt>
      <trkpt lat="36.760633" lon="-4.426360">
        <ele>54.356</ele>
        <time>2018-04-08T10:04:28Z</time>
      </trkpt>
      <trkpt lat="36.760658" lon="-4.426407">
        <ele>55.031</ele>
        <time>2018-04-08T10:04:47Z</time>
      </trkpt>
      <trkpt lat="36.760672" lon="-4.426470">
        <ele>55.595</ele>
        <time>2018-04-08T10:04:58Z</time>
      </trkpt>
      <trkpt lat="36.760693" lon="-4.426527">
        <ele>55.174</ele>
        <time>2018-04-08T10:05:03Z</time>
      </trkpt>
      <trkpt lat="36.760724" lon="-4.426575">
        <ele>54.513</ele>
        <time>2018-04-08T10:05:08Z</time>
      </trkpt>
      <trkpt lat="36.760761" lon="-4.426615">
        <ele>55.774</ele>
        <time>2018-04-08T10:05:13Z</time>
      </trkpt>
      <trkpt lat="36.760804" lon="-4.426641">
        <ele>53.726</ele>
        <time>2018-04-08T10:05:19Z</time>
      </trkpt>
      <trkpt lat="36.760844" lon="-4.426674">
        <ele>53.047</ele>
        <time>2018-04-08T10:05:32Z</time>
      </trkpt>
      <trkpt lat="36.760877" lon="-4.426728">
        <ele>53.711</ele>
        <time>2018-04-08T10:05:37Z</time>
      </trkpt>
      <trkpt lat="36.760894" lon="-4.426797">
        <ele>53.708</ele>
        <time>2018-04-08T10:05:46Z</time>
      </trkpt>
      <trkpt lat="36.760939" lon="-4.426779">
        <ele>54.064</ele>
        <time>2018-04-08T10:06:05Z</time>
      </trkpt>
      <trkpt lat="36.760965" lon="-4.426831">
        <ele>54.115</ele>
        <time>2018-04-08T10:06:16Z</time>
      </trkpt>
      <trkpt lat="36.761031" lon="-4.426880">
        <ele>53.090</ele>
        <time>2018-04-08T10:07:02Z</time>
      </trkpt>
      <trkpt lat="36.761074" lon="-4.426899">
        <ele>53.895</ele>
        <time>2018-04-08T10:07:30Z</time>
      </trkpt>
      <trkpt lat="36.761134" lon="-4.426924">
        <ele>53.379</ele>
        <time>2018-04-08T10:07:51Z</time>
      </trkpt>
      <trkpt lat="36.761168" lon="-4.426882">
        <ele>53.688</ele>
        <time>2018-04-08T10:08:09Z</time>
      </trkpt>
      <trkpt lat="36.761209" lon="-4.426847">
        <ele>54.137</ele>
        <time>2018-04-08T10:08:16Z</time>
      </trkpt>
      <trkpt lat="36.761290" lon="-4.426870">
        <ele>54.128</ele>
        <time>2018-04-08T10:08:35Z</time>
      </trkpt>
      <trkpt lat="36.761338" lon="-4.426874">
        <ele>54.162</ele>
        <time>2018-04-08T10:08:50Z</time>
      </trkpt>
      <trkpt lat="36.761390" lon="-4.426851">
        <ele>54.583</ele>
        <time>2018-04-08T10:09:08Z</time>
      </trkpt>
      <trkpt lat="36.761452" lon="-4.426823">
        <ele>54.911</ele>
        <time>2018-04-08T10:09:20Z</time>
      </trkpt>
      <trkpt lat="36.761487" lon="-4.426876">
        <ele>56.408</ele>
        <time>2018-04-08T10:10:20Z</time>
      </trkpt>
      <trkpt lat="36.761464" lon="-4.426787">
        <ele>56.068</ele>
        <time>2018-04-08T10:11:13Z</time>
      </trkpt>
      <trkpt lat="36.761668" lon="-4.426489">
        <ele>58.719</ele>
        <time>2018-04-08T10:15:04Z</time>
      </trkpt>
      <trkpt lat="36.761757" lon="-4.426426">
        <ele>58.724</ele>
        <time>2018-04-08T10:15:21Z</time>
      </trkpt>
      <trkpt lat="36.761823" lon="-4.426368">
        <ele>60.779</ele>
        <time>2018-04-08T10:16:10Z</time>
      </trkpt>
      <trkpt lat="36.761857" lon="-4.426429">
        <ele>58.423</ele>
        <time>2018-04-08T10:16:35Z</time>
      </trkpt>
      <trkpt lat="36.761878" lon="-4.426377">
        <ele>58.952</ele>
        <time>2018-04-08T10:17:06Z</time>
      </trkpt>
      <trkpt lat="36.761831" lon="-4.426386">
        <ele>56.581</ele>
        <time>2018-04-08T10:17:22Z</time>
      </trkpt>
      <trkpt lat="36.761833" lon="-4.426322">
        <ele>55.622</ele>
        <time>2018-04-08T10:17:45Z</time>
      </trkpt>
      <trkpt lat="36.761786" lon="-4.426293">
        <ele>54.179</ele>
        <time>2018-04-08T10:17:49Z</time>
      </trkpt>
      <trkpt lat="36.761754" lon="-4.426241">
        <ele>53.205</ele>
        <time>2018-04-08T10:17:54Z</time>
      </trkpt>
      <trkpt lat="36.761717" lon="-4.426195">
        <ele>53.325</ele>
        <time>2018-04-08T10:18:14Z</time>
      </trkpt>
      <trkpt lat="36.761721" lon="-4.426253">
        <ele>53.708</ele>
        <time>2018-04-08T10:18:30Z</time>
      </trkpt>
      <trkpt lat="36.761689" lon="-4.426203">
        <ele>53.979</ele>
        <time>2018-04-08T10:19:12Z</time>
      </trkpt>
      <trkpt lat="36.761687" lon="-4.426136">
        <ele>54.150</ele>
        <time>2018-04-08T10:20:22Z</time>
      </trkpt>
      <trkpt lat="36.761732" lon="-4.426118">
        <ele>54.275</ele>
        <time>2018-04-08T10:24:55Z</time>
      </trkpt>
      <trkpt lat="36.761766" lon="-4.426166">
        <ele>54.390</ele>
        <time>2018-04-08T10:25:22Z</time>
      </trkpt>
      <trkpt lat="36.761817" lon="-4.426168">
        <ele>55.064</ele>
        <time>2018-04-08T10:25:28Z</time>
      </trkpt>
      <trkpt lat="36.761860" lon="-4.426147">
        <ele>56.093</ele>
        <time>2018-04-08T10:25:32Z</time>
      </trkpt>
      <trkpt lat="36.761944" lon="-4.426154">
        <ele>56.492</ele>
        <time>2018-04-08T10:26:04Z</time>
      </trkpt>
      <trkpt lat="36.761966" lon="-4.426204">
        <ele>58.433</ele>
        <time>2018-04-08T10:26:30Z</time>
      </trkpt>
      <trkpt lat="36.761925" lon="-4.426177">
        <ele>56.788</ele>
        <time>2018-04-08T10:27:00Z</time>
      </trkpt>
      <trkpt lat="36.761863" lon="-4.426132">
        <ele>56.124</ele>
        <time>2018-04-08T10:27:48Z</time>
      </trkpt>
      <trkpt lat="36.761851" lon="-4.426077">
        <ele>55.226</ele>
        <time>2018-04-08T10:28:55Z</time>
      </trkpt>
      <trkpt lat="36.761829" lon="-4.426028">
        <ele>56.608</ele>
        <time>2018-04-08T10:29:33Z</time>
      </trkpt>
      <trkpt lat="36.761825" lon="-4.425972">
        <ele>57.250</ele>
        <time>2018-04-08T10:29:38Z</time>
      </trkpt>
      <trkpt lat="36.761849" lon="-4.425908">
        <ele>56.061</ele>
        <time>2018-04-08T10:30:23Z</time>
      </trkpt>
      <trkpt lat="36.761836" lon="-4.425836">
        <ele>56.596</ele>
        <time>2018-04-08T10:31:31Z</time>
      </trkpt>
      <trkpt lat="36.761857" lon="-4.425762">
        <ele>58.041</ele>
        <time>2018-04-08T10:31:49Z</time>
      </trkpt>
      <trkpt lat="36.761911" lon="-4.425723">
        <ele>57.555</ele>
        <time>2018-04-08T10:32:02Z</time>
      </trkpt>
      <trkpt lat="36.761853" lon="-4.425697">
        <ele>57.064</ele>
        <time>2018-04-08T10:33:31Z</time>
      </trkpt>
      <trkpt lat="36.761887" lon="-4.425762">
        <ele>57.063</ele>
        <time>2018-04-08T10:33:43Z</time>
      </trkpt>
      <trkpt lat="36.761899" lon="-4.425819">
        <ele>56.044</ele>
        <time>2018-04-08T10:34:36Z</time>
      </trkpt>
      <trkpt lat="36.761961" lon="-4.425852">
        <ele>56.892</ele>
        <time>2018-04-08T10:34:59Z</time>
      </trkpt>
      <trkpt lat="36.762002" lon="-4.425823">
        <ele>59.173</ele>
        <time>2018-04-08T10:35:54Z</time>
      </trkpt>
      <trkpt lat="36.762036" lon="-4.425755">
        <ele>59.920</ele>
        <time>2018-04-08T10:36:16Z</time>
      </trkpt>
      <trkpt lat="36.762077" lon="-4.425780">
        <ele>60.108</ele>
        <time>2018-04-08T10:36:28Z</time>
      </trkpt>
      <trkpt lat="36.762119" lon="-4.425805">
        <ele>62.211</ele>
        <time>2018-04-08T10:36:52Z</time>
      </trkpt>
      <trkpt lat="36.762164" lon="-4.425863">
        <ele>62.162</ele>
        <time>2018-04-08T10:37:07Z</time>
      </trkpt>
      <trkpt lat="36.762222" lon="-4.425906">
        <ele>61.527</ele>
        <time>2018-04-08T10:37:27Z</time>
      </trkpt>
      <trkpt lat="36.762272" lon="-4.425918">
        <ele>65.342</ele>
        <time>2018-04-08T10:38:17Z</time>
      </trkpt>
      <trkpt lat="36.762304" lon="-4.425959">
        <ele>63.616</ele>
        <time>2018-04-08T10:38:34Z</time>
      </trkpt>
      <trkpt lat="36.762304" lon="-4.426018">
        <ele>64.025</ele>
        <time>2018-04-08T10:38:47Z</time>
      </trkpt>
      <trkpt lat="36.762328" lon="-4.426078">
        <ele>64.214</ele>
        <time>2018-04-08T10:39:21Z</time>
      </trkpt>
      <trkpt lat="36.762277" lon="-4.426067">
        <ele>63.075</ele>
        <time>2018-04-08T10:42:46Z</time>
      </trkpt>
      <trkpt lat="36.762328" lon="-4.426109">
        <ele>62.419</ele>
        <time>2018-04-08T10:43:37Z</time>
      </trkpt>
      <trkpt lat="36.762289" lon="-4.426070">
        <ele>61.609</ele>
        <time>2018-04-08T10:44:30Z</time>
      </trkpt>
      <trkpt lat="36.762330" lon="-4.426038">
        <ele>62.619</ele>
        <time>2018-04-08T10:45:26Z</time>
      </trkpt>
      <trkpt lat="36.762375" lon="-4.426065">
        <ele>63.008</ele>
        <time>2018-04-08T10:45:58Z</time>
      </trkpt>
      <trkpt lat="36.762337" lon="-4.426102">
        <ele>60.993</ele>
        <time>2018-04-08T10:47:03Z</time>
      </trkpt>
      <trkpt lat="36.762313" lon="-4.426153">
        <ele>60.954</ele>
        <time>2018-04-08T10:48:00Z</time>
      </trkpt>
      <trkpt lat="36.762330" lon="-4.426251">
        <ele>61.499</ele>
        <time>2018-04-08T10:49:45Z</time>
      </trkpt>
      <trkpt lat="36.762311" lon="-4.426198">
        <ele>60.774</ele>
        <time>2018-04-08T10:49:56Z</time>
      </trkpt>
      <trkpt lat="36.762326" lon="-4.426140">
        <ele>62.988</ele>
        <time>2018-04-08T10:50:14Z</time>
      </trkpt>
      <trkpt lat="36.762352" lon="-4.426086">
        <ele>62.547</ele>
        <time>2018-04-08T10:50:52Z</time>
      </trkpt>
      <trkpt lat="36.762386" lon="-4.426130">
        <ele>63.246</ele>
        <time>2018-04-08T10:50:59Z</time>
      </trkpt>
      <trkpt lat="36.762427" lon="-4.426164">
        <ele>63.647</ele>
        <time>2018-04-08T10:51:06Z</time>
      </trkpt>
      <trkpt lat="36.762455" lon="-4.426211">
        <ele>64.196</ele>
        <time>2018-04-08T10:51:12Z</time>
      </trkpt>
      <trkpt lat="36.762467" lon="-4.426317">
        <ele>65.531</ele>
        <time>2018-04-08T10:51:33Z</time>
      </trkpt>
      <trkpt lat="36.762512" lon="-4.426358">
        <ele>64.124</ele>
        <time>2018-04-08T10:52:07Z</time>
      </trkpt>
      <trkpt lat="36.762534" lon="-4.426410">
        <ele>64.208</ele>
        <time>2018-04-08T10:52:24Z</time>
      </trkpt>
      <trkpt lat="36.762554" lon="-4.426461">
        <ele>66.231</ele>
        <time>2018-04-08T10:52:28Z</time>
      </trkpt>
      <trkpt lat="36.762578" lon="-4.426534">
        <ele>65.362</ele>
        <time>2018-04-08T10:52:38Z</time>
      </trkpt>
      <trkpt lat="36.762606" lon="-4.426661">
        <ele>64.977</ele>
        <time>2018-04-08T10:53:06Z</time>
      </trkpt>
      <trkpt lat="36.762658" lon="-4.426717">
        <ele>65.062</ele>
        <time>2018-04-08T10:53:36Z</time>
      </trkpt>
      <trkpt lat="36.762669" lon="-4.426776">
        <ele>64.886</ele>
        <time>2018-04-08T10:53:47Z</time>
      </trkpt>
      <trkpt lat="36.762636" lon="-4.426817">
        <ele>65.095</ele>
        <time>2018-04-08T10:54:03Z</time>
      </trkpt>
      <trkpt lat="36.762590" lon="-4.426842">
        <ele>63.944</ele>
        <time>2018-04-08T10:54:10Z</time>
      </trkpt>
      <trkpt lat="36.762547" lon="-4.426871">
        <ele>63.995</ele>
        <time>2018-04-08T10:54:24Z</time>
      </trkpt>
      <trkpt lat="36.762500" lon="-4.426903">
        <ele>63.664</ele>
        <time>2018-04-08T10:54:29Z</time>
      </trkpt>
      <trkpt lat="36.762463" lon="-4.426939">
        <ele>64.206</ele>
        <time>2018-04-08T10:54:39Z</time>
      </trkpt>
      <trkpt lat="36.762411" lon="-4.426972">
        <ele>64.416</ele>
        <time>2018-04-08T10:54:46Z</time>
      </trkpt>
      <trkpt lat="36.762361" lon="-4.427010">
        <ele>65.008</ele>
        <time>2018-04-08T10:54:50Z</time>
      </trkpt>
      <trkpt lat="36.762309" lon="-4.427046">
        <ele>66.098</ele>
        <time>2018-04-08T10:54:54Z</time>
      </trkpt>
      <trkpt lat="36.762272" lon="-4.427085">
        <ele>65.479</ele>
        <time>2018-04-08T10:54:58Z</time>
      </trkpt>
      <trkpt lat="36.762253" lon="-4.427139">
        <ele>66.334</ele>
        <time>2018-04-08T10:55:04Z</time>
      </trkpt>
      <trkpt lat="36.762222" lon="-4.427182">
        <ele>65.889</ele>
        <time>2018-04-08T10:55:17Z</time>
      </trkpt>
      <trkpt lat="36.762200" lon="-4.427238">
        <ele>67.183</ele>
        <time>2018-04-08T10:55:23Z</time>
      </trkpt>
      <trkpt lat="36.762201" lon="-4.427295">
        <ele>67.312</ele>
        <time>2018-04-08T10:55:31Z</time>
      </trkpt>
      <trkpt lat="36.762155" lon="-4.427304">
        <ele>67.971</ele>
        <time>2018-04-08T10:55:36Z</time>
      </trkpt>
      <trkpt lat="36.762105" lon="-4.427305">
        <ele>67.412</ele>
        <time>2018-04-08T10:55:42Z</time>
      </trkpt>
      <trkpt lat="36.762059" lon="-4.427316">
        <ele>68.384</ele>
        <time>2018-04-08T10:55:48Z</time>
      </trkpt>
      <trkpt lat="36.762017" lon="-4.427340">
        <ele>68.507</ele>
        <time>2018-04-08T10:55:59Z</time>
      </trkpt>
      <trkpt lat="36.761970" lon="-4.427381">
        <ele>68.417</ele>
        <time>2018-04-08T10:56:06Z</time>
      </trkpt>
      <trkpt lat="36.761924" lon="-4.427413">
        <ele>69.708</ele>
        <time>2018-04-08T10:56:09Z</time>
      </trkpt>
      <trkpt lat="36.761876" lon="-4.427443">
        <ele>70.130</ele>
        <time>2018-04-08T10:56:12Z</time>
      </trkpt>
      <trkpt lat="36.761833" lon="-4.427480">
        <ele>67.921</ele>
        <time>2018-04-08T10:56:16Z</time>
      </trkpt>
      <trkpt lat="36.761806" lon="-4.427526">
        <ele>69.726</ele>
        <time>2018-04-08T10:56:20Z</time>
      </trkpt>
      <trkpt lat="36.761774" lon="-4.427570">
        <ele>69.551</ele>
        <time>2018-04-08T10:56:25Z</time>
      </trkpt>
      <trkpt lat="36.761720" lon="-4.427590">
        <ele>69.425</ele>
        <time>2018-04-08T10:56:29Z</time>
      </trkpt>
      <trkpt lat="36.761661" lon="-4.427603">
        <ele>70.474</ele>
        <time>2018-04-08T10:56:33Z</time>
      </trkpt>
      <trkpt lat="36.761609" lon="-4.427612">
        <ele>70.313</ele>
        <time>2018-04-08T10:56:38Z</time>
      </trkpt>
      <trkpt lat="36.761575" lon="-4.427649">
        <ele>71.554</ele>
        <time>2018-04-08T10:56:48Z</time>
      </trkpt>
      <trkpt lat="36.761612" lon="-4.427603">
        <ele>70.795</ele>
        <time>2018-04-08T10:56:57Z</time>
      </trkpt>
      <trkpt lat="36.761648" lon="-4.427564">
        <ele>70.849</ele>
        <time>2018-04-08T10:57:03Z</time>
      </trkpt>
      <trkpt lat="36.761678" lon="-4.427520">
        <ele>69.823</ele>
        <time>2018-04-08T10:57:10Z</time>
      </trkpt>
      <trkpt lat="36.761701" lon="-4.427461">
        <ele>70.408</ele>
        <time>2018-04-08T10:57:15Z</time>
      </trkpt>
      <trkpt lat="36.761742" lon="-4.427418">
        <ele>69.081</ele>
        <time>2018-04-08T10:57:20Z</time>
      </trkpt>
      <trkpt lat="36.761784" lon="-4.427398">
        <ele>67.822</ele>
        <time>2018-04-08T10:57:25Z</time>
      </trkpt>
      <trkpt lat="36.761827" lon="-4.427376">
        <ele>68.097</ele>
        <time>2018-04-08T10:57:31Z</time>
      </trkpt>
      <trkpt lat="36.761878" lon="-4.427354">
        <ele>68.482</ele>
        <time>2018-04-08T10:57:36Z</time>
      </trkpt>
      <trkpt lat="36.761922" lon="-4.427340">
        <ele>67.226</ele>
        <time>2018-04-08T10:57:40Z</time>
      </trkpt>
      <trkpt lat="36.761971" lon="-4.427346">
        <ele>67.495</ele>
        <time>2018-04-08T10:57:44Z</time>
      </trkpt>
      <trkpt lat="36.762025" lon="-4.427318">
        <ele>66.644</ele>
        <time>2018-04-08T10:57:48Z</time>
      </trkpt>
      <trkpt lat="36.762069" lon="-4.427284">
        <ele>66.645</ele>
        <time>2018-04-08T10:57:52Z</time>
      </trkpt>
      <trkpt lat="36.762105" lon="-4.427229">
        <ele>65.829</ele>
        <time>2018-04-08T10:57:57Z</time>
      </trkpt>
      <trkpt lat="36.762138" lon="-4.427183">
        <ele>66.000</ele>
        <time>2018-04-08T10:58:01Z</time>
      </trkpt>
      <trkpt lat="36.762174" lon="-4.427144">
        <ele>66.220</ele>
        <time>2018-04-08T10:58:05Z</time>
      </trkpt>
      <trkpt lat="36.762214" lon="-4.427092">
        <ele>66.808</ele>
        <time>2018-04-08T10:58:09Z</time>
      </trkpt>
      <trkpt lat="36.762263" lon="-4.427059">
        <ele>67.884</ele>
        <time>2018-04-08T10:58:14Z</time>
      </trkpt>
      <trkpt lat="36.762309" lon="-4.427053">
        <ele>66.995</ele>
        <time>2018-04-08T10:58:18Z</time>
      </trkpt>
      <trkpt lat="36.762362" lon="-4.427046">
        <ele>67.160</ele>
        <time>2018-04-08T10:58:24Z</time>
      </trkpt>
      <trkpt lat="36.762399" lon="-4.427007">
        <ele>66.465</ele>
        <time>2018-04-08T10:58:28Z</time>
      </trkpt>
      <trkpt lat="36.762438" lon="-4.426974">
        <ele>68.519</ele>
        <time>2018-04-08T10:58:31Z</time>
      </trkpt>
      <trkpt lat="36.762481" lon="-4.426941">
        <ele>67.048</ele>
        <time>2018-04-08T10:58:34Z</time>
      </trkpt>
      <trkpt lat="36.762523" lon="-4.426911">
        <ele>66.577</ele>
        <time>2018-04-08T10:58:39Z</time>
      </trkpt>
      <trkpt lat="36.762565" lon="-4.426875">
        <ele>66.558</ele>
        <time>2018-04-08T10:58:43Z</time>
      </trkpt>
      <trkpt lat="36.762610" lon="-4.426866">
        <ele>67.276</ele>
        <time>2018-04-08T10:58:49Z</time>
      </trkpt>
      <trkpt lat="36.762649" lon="-4.426834">
        <ele>66.490</ele>
        <time>2018-04-08T10:58:53Z</time>
      </trkpt>
      <trkpt lat="36.762673" lon="-4.426781">
        <ele>66.419</ele>
        <time>2018-04-08T10:58:58Z</time>
      </trkpt>
      <trkpt lat="36.762687" lon="-4.426723">
        <ele>66.108</ele>
        <time>2018-04-08T10:59:03Z</time>
      </trkpt>
      <trkpt lat="36.762702" lon="-4.426670">
        <ele>65.549</ele>
        <time>2018-04-08T10:59:06Z</time>
      </trkpt>
      <trkpt lat="36.762716" lon="-4.426612">
        <ele>65.040</ele>
        <time>2018-04-08T10:59:09Z</time>
      </trkpt>
      <trkpt lat="36.762730" lon="-4.426551">
        <ele>64.185</ele>
        <time>2018-04-08T10:59:13Z</time>
      </trkpt>
      <trkpt lat="36.762742" lon="-4.426487">
        <ele>64.730</ele>
        <time>2018-04-08T10:59:17Z</time>
      </trkpt>
      <trkpt lat="36.762765" lon="-4.426436">
        <ele>64.564</ele>
        <time>2018-04-08T10:59:20Z</time>
      </trkpt>
      <trkpt lat="36.762790" lon="-4.426386">
        <ele>65.333</ele>
        <time>2018-04-08T10:59:24Z</time>
      </trkpt>
      <trkpt lat="36.762788" lon="-4.426325">
        <ele>65.172</ele>
        <time>2018-04-08T10:59:32Z</time>
      </trkpt>
      <trkpt lat="36.762834" lon="-4.426294">
        <ele>63.823</ele>
        <time>2018-04-08T10:59:36Z</time>
      </trkpt>
      <trkpt lat="36.762869" lon="-4.426255">
        <ele>64.519</ele>
        <time>2018-04-08T10:59:39Z</time>
      </trkpt>
      <trkpt lat="36.762890" lon="-4.426203">
        <ele>63.809</ele>
        <time>2018-04-08T10:59:43Z</time>
      </trkpt>
      <trkpt lat="36.762863" lon="-4.426145">
        <ele>65.219</ele>
        <time>2018-04-08T10:59:48Z</time>
      </trkpt>
      <trkpt lat="36.762824" lon="-4.426109">
        <ele>63.208</ele>
        <time>2018-04-08T10:59:53Z</time>
      </trkpt>
      <trkpt lat="36.762775" lon="-4.426090">
        <ele>62.813</ele>
        <time>2018-04-08T10:59:58Z</time>
      </trkpt>
      <trkpt lat="36.762728" lon="-4.426080">
        <ele>63.544</ele>
        <time>2018-04-08T11:00:02Z</time>
      </trkpt>
      <trkpt lat="36.762685" lon="-4.426062">
        <ele>63.069</ele>
        <time>2018-04-08T11:00:06Z</time>
      </trkpt>
      <trkpt lat="36.762637" lon="-4.426045">
        <ele>64.064</ele>
        <time>2018-04-08T11:00:11Z</time>
      </trkpt>
      <trkpt lat="36.762586" lon="-4.426037">
        <ele>62.648</ele>
        <time>2018-04-08T11:00:18Z</time>
      </trkpt>
      <trkpt lat="36.762537" lon="-4.426056">
        <ele>63.317</ele>
        <time>2018-04-08T11:00:24Z</time>
      </trkpt>
      <trkpt lat="36.762491" lon="-4.426068">
        <ele>63.116</ele>
        <time>2018-04-08T11:00:30Z</time>
      </trkpt>
      <trkpt lat="36.762478" lon="-4.426131">
        <ele>63.047</ele>
        <time>2018-04-08T11:00:35Z</time>
      </trkpt>
      <trkpt lat="36.762486" lon="-4.426188">
        <ele>63.666</ele>
        <time>2018-04-08T11:00:38Z</time>
      </trkpt>
      <trkpt lat="36.762490" lon="-4.426244">
        <ele>64.329</ele>
        <time>2018-04-08T11:00:42Z</time>
      </trkpt>
      <trkpt lat="36.762490" lon="-4.426312">
        <ele>63.521</ele>
        <time>2018-04-08T11:00:46Z</time>
      </trkpt>
      <trkpt lat="36.762496" lon="-4.426370">
        <ele>63.808</ele>
        <time>2018-04-08T11:00:50Z</time>
      </trkpt>
      <trkpt lat="36.762504" lon="-4.426431">
        <ele>63.078</ele>
        <time>2018-04-08T11:01:02Z</time>
      </trkpt>
      <trkpt lat="36.762509" lon="-4.426502">
        <ele>62.449</ele>
        <time>2018-04-08T11:01:11Z</time>
      </trkpt>
      <trkpt lat="36.762519" lon="-4.426567">
        <ele>61.334</ele>
        <time>2018-04-08T11:01:14Z</time>
      </trkpt>
      <trkpt lat="36.762490" lon="-4.426614">
        <ele>61.819</ele>
        <time>2018-04-08T11:01:24Z</time>
      </trkpt>
      <trkpt lat="36.762467" lon="-4.426671">
        <ele>61.853</ele>
        <time>2018-04-08T11:01:35Z</time>
      </trkpt>
      <trkpt lat="36.762458" lon="-4.426727">
        <ele>60.532</ele>
        <time>2018-04-08T11:01:41Z</time>
      </trkpt>
      <trkpt lat="36.762472" lon="-4.426787">
        <ele>62.771</ele>
        <time>2018-04-08T11:01:49Z</time>
      </trkpt>
      <trkpt lat="36.762481" lon="-4.426850">
        <ele>63.152</ele>
        <time>2018-04-08T11:01:56Z</time>
      </trkpt>
      <trkpt lat="36.762471" lon="-4.426915">
        <ele>64.282</ele>
        <time>2018-04-08T11:02:02Z</time>
      </trkpt>
      <trkpt lat="36.762446" lon="-4.426963">
        <ele>64.243</ele>
        <time>2018-04-08T11:02:10Z</time>
      </trkpt>
      <trkpt lat="36.762410" lon="-4.426998">
        <ele>64.617</ele>
        <time>2018-04-08T11:02:14Z</time>
      </trkpt>
      <trkpt lat="36.762370" lon="-4.427038">
        <ele>64.708</ele>
        <time>2018-04-08T11:02:18Z</time>
      </trkpt>
      <trkpt lat="36.762333" lon="-4.427072">
        <ele>65.630</ele>
        <time>2018-04-08T11:02:21Z</time>
      </trkpt>
      <trkpt lat="36.762297" lon="-4.427116">
        <ele>65.521</ele>
        <time>2018-04-08T11:02:25Z</time>
      </trkpt>
      <trkpt lat="36.762254" lon="-4.427156">
        <ele>65.526</ele>
        <time>2018-04-08T11:02:29Z</time>
      </trkpt>
      <trkpt lat="36.762211" lon="-4.427180">
        <ele>64.931</ele>
        <time>2018-04-08T11:02:34Z</time>
      </trkpt>
      <trkpt lat="36.762165" lon="-4.427200">
        <ele>64.365</ele>
        <time>2018-04-08T11:02:40Z</time>
      </trkpt>
      <trkpt lat="36.762123" lon="-4.427235">
        <ele>64.594</ele>
        <time>2018-04-08T11:02:50Z</time>
      </trkpt>
      <trkpt lat="36.762077" lon="-4.427238">
        <ele>65.433</ele>
        <time>2018-04-08T11:02:59Z</time>
      </trkpt>
      <trkpt lat="36.762029" lon="-4.427257">
        <ele>65.054</ele>
        <time>2018-04-08T11:03:15Z</time>
      </trkpt>
      <trkpt lat="36.761983" lon="-4.427275">
        <ele>63.718</ele>
        <time>2018-04-08T11:03:23Z</time>
      </trkpt>
      <trkpt lat="36.761924" lon="-4.427298">
        <ele>62.498</ele>
        <time>2018-04-08T11:03:36Z</time>
      </trkpt>
      <trkpt lat="36.761873" lon="-4.427319">
        <ele>61.417</ele>
        <time>2018-04-08T11:03:42Z</time>
      </trkpt>
      <trkpt lat="36.761828" lon="-4.427334">
        <ele>61.608</ele>
        <time>2018-04-08T11:03:46Z</time>
      </trkpt>
      <trkpt lat="36.761768" lon="-4.427339">
        <ele>62.313</ele>
        <time>2018-04-08T11:03:50Z</time>
      </trkpt>
      <trkpt lat="36.761714" lon="-4.427341">
        <ele>60.794</ele>
        <time>2018-04-08T11:03:55Z</time>
      </trkpt>
      <trkpt lat="36.761670" lon="-4.427353">
        <ele>60.139</ele>
        <time>2018-04-08T11:04:00Z</time>
      </trkpt>
      <trkpt lat="36.761620" lon="-4.427355">
        <ele>59.534</ele>
        <time>2018-04-08T11:04:05Z</time>
      </trkpt>
      <trkpt lat="36.761548" lon="-4.427356">
        <ele>58.148</ele>
        <time>2018-04-08T11:04:15Z</time>
      </trkpt>
      <trkpt lat="36.761489" lon="-4.427366">
        <ele>58.157</ele>
        <time>2018-04-08T11:04:19Z</time>
      </trkpt>
      <trkpt lat="36.761439" lon="-4.427366">
        <ele>57.596</ele>
        <time>2018-04-08T11:04:22Z</time>
      </trkpt>
      <trkpt lat="36.761370" lon="-4.427359">
        <ele>57.767</ele>
        <time>2018-04-08T11:04:27Z</time>
      </trkpt>
      <trkpt lat="36.761317" lon="-4.427352">
        <ele>58.769</ele>
        <time>2018-04-08T11:04:31Z</time>
      </trkpt>
      <trkpt lat="36.761269" lon="-4.427351">
        <ele>57.404</ele>
        <time>2018-04-08T11:04:35Z</time>
      </trkpt>
      <trkpt lat="36.761213" lon="-4.427336">
        <ele>56.724</ele>
        <time>2018-04-08T11:04:39Z</time>
      </trkpt>
      <trkpt lat="36.761162" lon="-4.427322">
        <ele>57.108</ele>
        <time>2018-04-08T11:04:43Z</time>
      </trkpt>
      <trkpt lat="36.761105" lon="-4.427307">
        <ele>55.698</ele>
        <time>2018-04-08T11:04:47Z</time>
      </trkpt>
      <trkpt lat="36.761054" lon="-4.427290">
        <ele>54.659</ele>
        <time>2018-04-08T11:04:52Z</time>
      </trkpt>
      <trkpt lat="36.761001" lon="-4.427278">
        <ele>53.474</ele>
        <time>2018-04-08T11:04:58Z</time>
      </trkpt>
      <trkpt lat="36.760954" lon="-4.427271">
        <ele>53.329</ele>
        <time>2018-04-08T11:05:01Z</time>
      </trkpt>
      <trkpt lat="36.760911" lon="-4.427254">
        <ele>54.033</ele>
        <time>2018-04-08T11:05:04Z</time>
      </trkpt>
      <trkpt lat="36.760856" lon="-4.427241">
        <ele>52.262</ele>
        <time>2018-04-08T11:05:08Z</time>
      </trkpt>
      <trkpt lat="36.760803" lon="-4.427249">
        <ele>52.551</ele>
        <time>2018-04-08T11:05:12Z</time>
      </trkpt>
      <trkpt lat="36.760762" lon="-4.427274">
        <ele>52.092</ele>
        <time>2018-04-08T11:05:21Z</time>
      </trkpt>
      <trkpt lat="36.760723" lon="-4.427310">
        <ele>51.835</ele>
        <time>2018-04-08T11:05:33Z</time>
      </trkpt>
      <trkpt lat="36.760677" lon="-4.427331">
        <ele>51.786</ele>
        <time>2018-04-08T11:05:38Z</time>
      </trkpt>
      <trkpt lat="36.760641" lon="-4.427374">
        <ele>50.714</ele>
        <time>2018-04-08T11:05:44Z</time>
      </trkpt>
      <trkpt lat="36.760601" lon="-4.427403">
        <ele>51.008</ele>
        <time>2018-04-08T11:05:48Z</time>
      </trkpt>
      <trkpt lat="36.760557" lon="-4.427426">
        <ele>50.665</ele>
        <time>2018-04-08T11:05:52Z</time>
      </trkpt>
      <trkpt lat="36.760521" lon="-4.427466">
        <ele>50.616</ele>
        <time>2018-04-08T11:05:57Z</time>
      </trkpt>
      <trkpt lat="36.760470" lon="-4.427499">
        <ele>50.021</ele>
        <time>2018-04-08T11:06:02Z</time>
      </trkpt>
      <trkpt lat="36.760426" lon="-4.427533">
        <ele>50.156</ele>
        <time>2018-04-08T11:06:07Z</time>
      </trkpt>
      <trkpt lat="36.760385" lon="-4.427577">
        <ele>49.810</ele>
        <time>2018-04-08T11:06:12Z</time>
      </trkpt>
      <trkpt lat="36.760344" lon="-4.427620">
        <ele>49.829</ele>
        <time>2018-04-08T11:06:16Z</time>
      </trkpt>
      <trkpt lat="36.760298" lon="-4.427655">
        <ele>51.238</ele>
        <time>2018-04-08T11:06:20Z</time>
      </trkpt>
      <trkpt lat="36.760248" lon="-4.427689">
        <ele>51.689</ele>
        <time>2018-04-08T11:06:24Z</time>
      </trkpt>
      <trkpt lat="36.760208" lon="-4.427725">
        <ele>49.274</ele>
        <time>2018-04-08T11:06:28Z</time>
      </trkpt>
      <trkpt lat="36.760170" lon="-4.427764">
        <ele>50.456</ele>
        <time>2018-04-08T11:06:32Z</time>
      </trkpt>
      <trkpt lat="36.760129" lon="-4.427795">
        <ele>50.021</ele>
        <time>2018-04-08T11:06:36Z</time>
      </trkpt>
      <trkpt lat="36.760088" lon="-4.427824">
        <ele>49.508</ele>
        <time>2018-04-08T11:06:40Z</time>
      </trkpt>
      <trkpt lat="36.760037" lon="-4.427851">
        <ele>49.869</ele>
        <time>2018-04-08T11:06:45Z</time>
      </trkpt>
      <trkpt lat="36.759990" lon="-4.427861">
        <ele>51.090</ele>
        <time>2018-04-08T11:06:59Z</time>
      </trkpt>
      <trkpt lat="36.759945" lon="-4.427892">
        <ele>51.375</ele>
        <time>2018-04-08T11:07:05Z</time>
      </trkpt>
      <trkpt lat="36.759902" lon="-4.427922">
        <ele>49.270</ele>
        <time>2018-04-08T11:07:09Z</time>
      </trkpt>
      <trkpt lat="36.759862" lon="-4.427957">
        <ele>49.694</ele>
        <time>2018-04-08T11:07:13Z</time>
      </trkpt>
      <trkpt lat="36.759821" lon="-4.427995">
        <ele>50.413</ele>
        <time>2018-04-08T11:07:17Z</time>
      </trkpt>
      <trkpt lat="36.759782" lon="-4.428042">
        <ele>50.282</ele>
        <time>2018-04-08T11:07:22Z</time>
      </trkpt>
      <trkpt lat="36.759752" lon="-4.428088">
        <ele>51.253</ele>
        <time>2018-04-08T11:07:43Z</time>
      </trkpt>
      <trkpt lat="36.759717" lon="-4.428128">
        <ele>51.888</ele>
        <time>2018-04-08T11:07:49Z</time>
      </trkpt>
      <trkpt lat="36.759676" lon="-4.428157">
        <ele>52.824</ele>
        <time>2018-04-08T11:07:53Z</time>
      </trkpt>
      <trkpt lat="36.759640" lon="-4.428193">
        <ele>52.926</ele>
        <time>2018-04-08T11:07:57Z</time>
      </trkpt>
      <trkpt lat="36.759607" lon="-4.428234">
        <ele>53.608</ele>
        <time>2018-04-08T11:08:01Z</time>
      </trkpt>
      <trkpt lat="36.759570" lon="-4.428268">
        <ele>54.770</ele>
        <time>2018-04-08T11:08:05Z</time>
      </trkpt>
      <trkpt lat="36.759531" lon="-4.428307">
        <ele>55.821</ele>
        <time>2018-04-08T11:08:10Z</time>
      </trkpt>
      <trkpt lat="36.759490" lon="-4.428339">
        <ele>55.936</ele>
        <time>2018-04-08T11:08:19Z</time>
      </trkpt>
      <trkpt lat="36.759443" lon="-4.428364">
        <ele>55.021</ele>
        <time>2018-04-08T11:08:25Z</time>
      </trkpt>
      <trkpt lat="36.759394" lon="-4.428381">
        <ele>55.075</ele>
        <time>2018-04-08T11:08:30Z</time>
      </trkpt>
      <trkpt lat="36.759350" lon="-4.428416">
        <ele>56.424</ele>
        <time>2018-04-08T11:08:35Z</time>
      </trkpt>
      <trkpt lat="36.759318" lon="-4.428458">
        <ele>57.333</ele>
        <time>2018-04-08T11:08:41Z</time>
      </trkpt>
      <trkpt lat="36.759288" lon="-4.428508">
        <ele>56.874</ele>
        <time>2018-04-08T11:08:46Z</time>
      </trkpt>
      <trkpt lat="36.759270" lon="-4.428559">
        <ele>56.567</ele>
        <time>2018-04-08T11:08:52Z</time>
      </trkpt>
      <trkpt lat="36.759287" lon="-4.428621">
        <ele>58.381</ele>
        <time>2018-04-08T11:09:09Z</time>
      </trkpt>
      <trkpt lat="36.759317" lon="-4.428665">
        <ele>59.419</ele>
        <time>2018-04-08T11:09:44Z</time>
      </trkpt>
      <trkpt lat="36.759362" lon="-4.428656">
        <ele>61.408</ele>
        <time>2018-04-08T11:09:59Z</time>
      </trkpt>
      <trkpt lat="36.759314" lon="-4.428676">
        <ele>59.788</ele>
        <time>2018-04-08T11:11:45Z</time>
      </trkpt>
      <trkpt lat="36.759278" lon="-4.428713">
        <ele>61.699</ele>
        <time>2018-04-08T11:11:50Z</time>
      </trkpt>
      <trkpt lat="36.759238" lon="-4.428748">
        <ele>60.174</ele>
        <time>2018-04-08T11:12:07Z</time>
      </trkpt>
      <trkpt lat="36.759210" lon="-4.428802">
        <ele>60.569</ele>
        <time>2018-04-08T11:12:15Z</time>
      </trkpt>
      <trkpt lat="36.759171" lon="-4.428838">
        <ele>60.153</ele>
        <time>2018-04-08T11:12:21Z</time>
      </trkpt>
      <trkpt lat="36.759131" lon="-4.428874">
        <ele>60.542</ele>
        <time>2018-04-08T11:12:27Z</time>
      </trkpt>
      <trkpt lat="36.759081" lon="-4.428895">
        <ele>60.041</ele>
        <time>2018-04-08T11:12:33Z</time>
      </trkpt>
      <trkpt lat="36.759032" lon="-4.428896">
        <ele>60.432</ele>
        <time>2018-04-08T11:12:39Z</time>
      </trkpt>
      <trkpt lat="36.758988" lon="-4.428881">
        <ele>60.688</ele>
        <time>2018-04-08T11:12:51Z</time>
      </trkpt>
      <trkpt lat="36.758947" lon="-4.428847">
        <ele>59.824</ele>
        <time>2018-04-08T11:12:58Z</time>
      </trkpt>
      <trkpt lat="36.758901" lon="-4.428831">
        <ele>60.026</ele>
        <time>2018-04-08T11:13:04Z</time>
      </trkpt>
      <trkpt lat="36.758856" lon="-4.428808">
        <ele>60.208</ele>
        <time>2018-04-08T11:13:09Z</time>
      </trkpt>
      <trkpt lat="36.758804" lon="-4.428789">
        <ele>59.860</ele>
        <time>2018-04-08T11:13:13Z</time>
      </trkpt>
      <trkpt lat="36.758756" lon="-4.428771">
        <ele>60.041</ele>
        <time>2018-04-08T11:13:17Z</time>
      </trkpt>
      <trkpt lat="36.758710" lon="-4.428751">
        <ele>60.616</ele>
        <time>2018-04-08T11:13:29Z</time>
      </trkpt>
      <trkpt lat="36.758658" lon="-4.428756">
        <ele>61.981</ele>
        <time>2018-04-08T11:14:06Z</time>
      </trkpt>
      <trkpt lat="36.758609" lon="-4.428767">
        <ele>62.715</ele>
        <time>2018-04-08T11:14:42Z</time>
      </trkpt>
      <trkpt lat="36.758554" lon="-4.428767">
        <ele>61.224</ele>
        <time>2018-04-08T11:15:14Z</time>
      </trkpt>
      <trkpt lat="36.758559" lon="-4.428829">
        <ele>62.883</ele>
        <time>2018-04-08T11:15:30Z</time>
      </trkpt>
      <trkpt lat="36.758557" lon="-4.428772">
        <ele>61.964</ele>
        <time>2018-04-08T11:16:07Z</time>
      </trkpt>
      <trkpt lat="36.758596" lon="-4.428738">
        <ele>63.368</ele>
        <time>2018-04-08T11:16:23Z</time>
      </trkpt>
      <trkpt lat="36.758633" lon="-4.428702">
        <ele>60.442</ele>
        <time>2018-04-08T11:17:00Z</time>
      </trkpt>
      <trkpt lat="36.758683" lon="-4.428713">
        <ele>60.126</ele>
        <time>2018-04-08T11:17:06Z</time>
      </trkpt>
      <trkpt lat="36.758735" lon="-4.428721">
        <ele>59.208</ele>
        <time>2018-04-08T11:17:11Z</time>
      </trkpt>
      <trkpt lat="36.758779" lon="-4.428746">
        <ele>60.988</ele>
        <time>2018-04-08T11:17:22Z</time>
      </trkpt>
      <trkpt lat="36.758830" lon="-4.428766">
        <ele>59.989</ele>
        <time>2018-04-08T11:17:26Z</time>
      </trkpt>
      <trkpt lat="36.758881" lon="-4.428785">
        <ele>60.124</ele>
        <time>2018-04-08T11:17:30Z</time>
      </trkpt>
      <trkpt lat="36.758927" lon="-4.428781">
        <ele>58.539</ele>
        <time>2018-04-08T11:17:34Z</time>
      </trkpt>
      <trkpt lat="36.758975" lon="-4.428775">
        <ele>58.563</ele>
        <time>2018-04-08T11:17:38Z</time>
      </trkpt>
      <trkpt lat="36.759025" lon="-4.428760">
        <ele>58.442</ele>
        <time>2018-04-08T11:17:42Z</time>
      </trkpt>
      <trkpt lat="36.759063" lon="-4.428727">
        <ele>58.041</ele>
        <time>2018-04-08T11:17:45Z</time>
      </trkpt>
      <trkpt lat="36.759102" lon="-4.428689">
        <ele>58.272</ele>
        <time>2018-04-08T11:17:48Z</time>
      </trkpt>
      <trkpt lat="36.759135" lon="-4.428650">
        <ele>57.856</ele>
        <time>2018-04-08T11:17:51Z</time>
      </trkpt>
      <trkpt lat="36.759177" lon="-4.428616">
        <ele>57.559</ele>
        <time>2018-04-08T11:17:55Z</time>
      </trkpt>
      <trkpt lat="36.759211" lon="-4.428571">
        <ele>56.614</ele>
        <time>2018-04-08T11:17:59Z</time>
      </trkpt>
      <trkpt lat="36.759239" lon="-4.428519">
        <ele>56.908</ele>
        <time>2018-04-08T11:18:03Z</time>
      </trkpt>
      <trkpt lat="36.759263" lon="-4.428461">
        <ele>55.747</ele>
        <time>2018-04-08T11:18:07Z</time>
      </trkpt>
      <trkpt lat="36.759292" lon="-4.428409">
        <ele>55.348</ele>
        <time>2018-04-08T11:18:11Z</time>
      </trkpt>
      <trkpt lat="36.759342" lon="-4.428379">
        <ele>55.013</ele>
        <time>2018-04-08T11:18:16Z</time>
      </trkpt>
      <trkpt lat="36.759395" lon="-4.428356">
        <ele>54.498</ele>
        <time>2018-04-08T11:18:20Z</time>
      </trkpt>
      <trkpt lat="36.759434" lon="-4.428329">
        <ele>54.342</ele>
        <time>2018-04-08T11:18:23Z</time>
      </trkpt>
      <trkpt lat="36.759479" lon="-4.428291">
        <ele>53.571</ele>
        <time>2018-04-08T11:18:27Z</time>
      </trkpt>
      <trkpt lat="36.759516" lon="-4.428246">
        <ele>52.840</ele>
        <time>2018-04-08T11:18:31Z</time>
      </trkpt>
      <trkpt lat="36.759554" lon="-4.428204">
        <ele>52.271</ele>
        <time>2018-04-08T11:18:35Z</time>
      </trkpt>
      <trkpt lat="36.759588" lon="-4.428164">
        <ele>51.284</ele>
        <time>2018-04-08T11:18:39Z</time>
      </trkpt>
      <trkpt lat="36.759629" lon="-4.428123">
        <ele>50.807</ele>
        <time>2018-04-08T11:18:43Z</time>
      </trkpt>
      <trkpt lat="36.759660" lon="-4.428068">
        <ele>51.217</ele>
        <time>2018-04-08T11:18:48Z</time>
      </trkpt>
      <trkpt lat="36.759696" lon="-4.428031">
        <ele>50.608</ele>
        <time>2018-04-08T11:18:52Z</time>
      </trkpt>
      <trkpt lat="36.759739" lon="-4.428002">
        <ele>49.540</ele>
        <time>2018-04-08T11:18:57Z</time>
      </trkpt>
      <trkpt lat="36.759780" lon="-4.427955">
        <ele>49.621</ele>
        <time>2018-04-08T11:19:02Z</time>
      </trkpt>
      <trkpt lat="36.759817" lon="-4.427918">
        <ele>49.446</ele>
        <time>2018-04-08T11:19:06Z</time>
      </trkpt>
      <trkpt lat="36.759854" lon="-4.427879">
        <ele>49.341</ele>
        <time>2018-04-08T11:19:10Z</time>
      </trkpt>
      <trkpt lat="36.759892" lon="-4.427836">
        <ele>49.285</ele>
        <time>2018-04-08T11:19:14Z</time>
      </trkpt>
      <trkpt lat="36.759929" lon="-4.427798">
        <ele>49.714</ele>
        <time>2018-04-08T11:19:18Z</time>
      </trkpt>
      <trkpt lat="36.759968" lon="-4.427765">
        <ele>50.043</ele>
        <time>2018-04-08T11:19:22Z</time>
      </trkpt>
      <trkpt lat="36.760019" lon="-4.427729">
        <ele>50.774</ele>
        <time>2018-04-08T11:19:26Z</time>
      </trkpt>
      <trkpt lat="36.760068" lon="-4.427698">
        <ele>49.773</ele>
        <time>2018-04-08T11:19:30Z</time>
      </trkpt>
      <trkpt lat="36.760110" lon="-4.427664">
        <ele>49.785</ele>
        <time>2018-04-08T11:19:34Z</time>
      </trkpt>
      <trkpt lat="36.760147" lon="-4.427622">
        <ele>49.513</ele>
        <time>2018-04-08T11:19:39Z</time>
      </trkpt>
      <trkpt lat="36.760181" lon="-4.427583">
        <ele>49.808</ele>
        <time>2018-04-08T11:19:43Z</time>
      </trkpt>
      <trkpt lat="36.760221" lon="-4.427540">
        <ele>50.299</ele>
        <time>2018-04-08T11:19:47Z</time>
      </trkpt>
      <trkpt lat="36.760267" lon="-4.427509">
        <ele>50.150</ele>
        <time>2018-04-08T11:19:51Z</time>
      </trkpt>
      <trkpt lat="36.760316" lon="-4.427489">
        <ele>50.535</ele>
        <time>2018-04-08T11:19:54Z</time>
      </trkpt>
      <trkpt lat="36.760358" lon="-4.427462">
        <ele>49.920</ele>
        <time>2018-04-08T11:19:57Z</time>
      </trkpt>
      <trkpt lat="36.760405" lon="-4.427430">
        <ele>50.494</ele>
        <time>2018-04-08T11:20:01Z</time>
      </trkpt>
      <trkpt lat="36.760457" lon="-4.427394">
        <ele>50.493</ele>
        <time>2018-04-08T11:20:05Z</time>
      </trkpt>
      <trkpt lat="36.760494" lon="-4.427359">
        <ele>50.732</ele>
        <time>2018-04-08T11:20:08Z</time>
      </trkpt>
      <trkpt lat="36.760541" lon="-4.427325">
        <ele>50.723</ele>
        <time>2018-04-08T11:20:12Z</time>
      </trkpt>
      <trkpt lat="36.760584" lon="-4.427290">
        <ele>50.787</ele>
        <time>2018-04-08T11:20:16Z</time>
      </trkpt>
      <trkpt lat="36.760632" lon="-4.427260">
        <ele>50.442</ele>
        <time>2018-04-08T11:20:21Z</time>
      </trkpt>
      <trkpt lat="36.760685" lon="-4.427236">
        <ele>51.126</ele>
        <time>2018-04-08T11:20:26Z</time>
      </trkpt>
      <trkpt lat="36.760736" lon="-4.427217">
        <ele>51.808</ele>
        <time>2018-04-08T11:20:30Z</time>
      </trkpt>
      <trkpt lat="36.760786" lon="-4.427223">
        <ele>51.580</ele>
        <time>2018-04-08T11:20:34Z</time>
      </trkpt>
      <trkpt lat="36.760834" lon="-4.427247">
        <ele>52.771</ele>
        <time>2018-04-08T11:20:38Z</time>
      </trkpt>
      <trkpt lat="36.760879" lon="-4.427257">
        <ele>53.086</ele>
        <time>2018-04-08T11:20:42Z</time>
      </trkpt>
      <trkpt lat="36.760929" lon="-4.427264">
        <ele>53.491</ele>
        <time>2018-04-08T11:20:46Z</time>
      </trkpt>
      <trkpt lat="36.760983" lon="-4.427280">
        <ele>53.385</ele>
        <time>2018-04-08T11:20:50Z</time>
      </trkpt>
      <trkpt lat="36.761034" lon="-4.427286">
        <ele>54.174</ele>
        <time>2018-04-08T11:20:54Z</time>
      </trkpt>
      <trkpt lat="36.761080" lon="-4.427284">
        <ele>54.733</ele>
        <time>2018-04-08T11:20:59Z</time>
      </trkpt>
      <trkpt lat="36.761127" lon="-4.427309">
        <ele>55.154</ele>
        <time>2018-04-08T11:21:03Z</time>
      </trkpt>
      <trkpt lat="36.761172" lon="-4.427320">
        <ele>55.375</ele>
        <time>2018-04-08T11:21:07Z</time>
      </trkpt>
      <trkpt lat="36.761225" lon="-4.427301">
        <ele>57.328</ele>
        <time>2018-04-08T11:21:12Z</time>
      </trkpt>
      <trkpt lat="36.761271" lon="-4.427282">
        <ele>56.720</ele>
        <time>2018-04-08T11:21:16Z</time>
      </trkpt>
      <trkpt lat="36.761324" lon="-4.427276">
        <ele>58.808</ele>
        <time>2018-04-08T11:21:20Z</time>
      </trkpt>
      <trkpt lat="36.761373" lon="-4.427263">
        <ele>58.859</ele>
        <time>2018-04-08T11:21:24Z</time>
      </trkpt>
      <trkpt lat="36.761426" lon="-4.427267">
        <ele>57.810</ele>
        <time>2018-04-08T11:21:29Z</time>
      </trkpt>
      <trkpt lat="36.761480" lon="-4.427270">
        <ele>58.685</ele>
        <time>2018-04-08T11:21:34Z</time>
      </trkpt>
      <trkpt lat="36.761536" lon="-4.427259">
        <ele>58.310</ele>
        <time>2018-04-08T11:21:39Z</time>
      </trkpt>
      <trkpt lat="36.761594" lon="-4.427242">
        <ele>60.484</ele>
        <time>2018-04-08T11:21:44Z</time>
      </trkpt>
      <trkpt lat="36.761651" lon="-4.427239">
        <ele>60.613</ele>
        <time>2018-04-08T11:21:48Z</time>
      </trkpt>
      <trkpt lat="36.761697" lon="-4.427222">
        <ele>61.152</ele>
        <time>2018-04-08T11:21:53Z</time>
      </trkpt>
      <trkpt lat="36.761743" lon="-4.427205">
        <ele>61.473</ele>
        <time>2018-04-08T11:21:57Z</time>
      </trkpt>
      <trkpt lat="36.761793" lon="-4.427179">
        <ele>61.675</ele>
        <time>2018-04-08T11:22:01Z</time>
      </trkpt>
      <trkpt lat="36.761846" lon="-4.427164">
        <ele>62.228</ele>
        <time>2018-04-08T11:22:05Z</time>
      </trkpt>
      <trkpt lat="36.761893" lon="-4.427147">
        <ele>64.420</ele>
        <time>2018-04-08T11:22:09Z</time>
      </trkpt>
      <trkpt lat="36.761948" lon="-4.427145">
        <ele>62.708</ele>
        <time>2018-04-08T11:22:12Z</time>
      </trkpt>
      <trkpt lat="36.762007" lon="-4.427128">
        <ele>64.289</ele>
        <time>2018-04-08T11:22:16Z</time>
      </trkpt>
      <trkpt lat="36.762056" lon="-4.427121">
        <ele>64.640</ele>
        <time>2018-04-08T11:22:19Z</time>
      </trkpt>
      <trkpt lat="36.762101" lon="-4.427130">
        <ele>64.325</ele>
        <time>2018-04-08T11:22:22Z</time>
      </trkpt>
      <trkpt lat="36.762146" lon="-4.427119">
        <ele>64.690</ele>
        <time>2018-04-08T11:22:25Z</time>
      </trkpt>
      <trkpt lat="36.762195" lon="-4.427100">
        <ele>64.614</ele>
        <time>2018-04-08T11:22:29Z</time>
      </trkpt>
      <trkpt lat="36.762247" lon="-4.427082">
        <ele>64.753</ele>
        <time>2018-04-08T11:22:33Z</time>
      </trkpt>
      <trkpt lat="36.762298" lon="-4.427085">
        <ele>64.442</ele>
        <time>2018-04-08T11:22:37Z</time>
      </trkpt>
      <trkpt lat="36.762349" lon="-4.427089">
        <ele>64.783</ele>
        <time>2018-04-08T11:22:41Z</time>
      </trkpt>
      <trkpt lat="36.762397" lon="-4.427079">
        <ele>65.286</ele>
        <time>2018-04-08T11:22:45Z</time>
      </trkpt>
      <trkpt lat="36.762445" lon="-4.427027">
        <ele>65.060</ele>
        <time>2018-04-08T11:22:48Z</time>
      </trkpt>
      <trkpt lat="36.762490" lon="-4.426987">
        <ele>65.526</ele>
        <time>2018-04-08T11:22:52Z</time>
      </trkpt>
      <trkpt lat="36.762538" lon="-4.426951">
        <ele>64.808</ele>
        <time>2018-04-08T11:22:56Z</time>
      </trkpt>
      <trkpt lat="36.762572" lon="-4.426903">
        <ele>64.440</ele>
        <time>2018-04-08T11:23:01Z</time>
      </trkpt>
      <trkpt lat="36.762585" lon="-4.426845">
        <ele>62.271</ele>
        <time>2018-04-08T11:23:08Z</time>
      </trkpt>
      <trkpt lat="36.762609" lon="-4.426795">
        <ele>62.926</ele>
        <time>2018-04-08T11:23:14Z</time>
      </trkpt>
      <trkpt lat="36.762606" lon="-4.426734">
        <ele>62.341</ele>
        <time>2018-04-08T11:23:21Z</time>
      </trkpt>
      <trkpt lat="36.762603" lon="-4.426670">
        <ele>62.275</ele>
        <time>2018-04-08T11:23:28Z</time>
      </trkpt>
      <trkpt lat="36.762580" lon="-4.426581">
        <ele>61.914</ele>
        <time>2018-04-08T11:23:54Z</time>
      </trkpt>
      <trkpt lat="36.762598" lon="-4.426662">
        <ele>61.763</ele>
        <time>2018-04-08T11:25:17Z</time>
      </trkpt>
      <trkpt lat="36.762629" lon="-4.426713">
        <ele>60.614</ele>
        <time>2018-04-08T11:26:42Z</time>
      </trkpt>
      <trkpt lat="36.762652" lon="-4.426769">
        <ele>61.349</ele>
        <time>2018-04-08T11:26:55Z</time>
      </trkpt>
      <trkpt lat="36.762605" lon="-4.426770">
        <ele>59.102</ele>
        <time>2018-04-08T11:28:06Z</time>
      </trkpt>
      <trkpt lat="36.762555" lon="-4.426748">
        <ele>58.522</ele>
        <time>2018-04-08T11:28:13Z</time>
      </trkpt>
      <trkpt lat="36.762500" lon="-4.426734">
        <ele>58.808</ele>
        <time>2018-04-08T11:28:29Z</time>
      </trkpt>
      <trkpt lat="36.762449" lon="-4.426730">
        <ele>57.816</ele>
        <time>2018-04-08T11:29:00Z</time>
      </trkpt>
      <trkpt lat="36.762440" lon="-4.426659">
        <ele>57.637</ele>
        <time>2018-04-08T11:29:45Z</time>
      </trkpt>
      <trkpt lat="36.762392" lon="-4.426625">
        <ele>57.082</ele>
        <time>2018-04-08T11:30:12Z</time>
      </trkpt>
      <trkpt lat="36.762396" lon="-4.426548">
        <ele>56.657</ele>
        <time>2018-04-08T11:31:43Z</time>
      </trkpt>
      <trkpt lat="36.762382" lon="-4.426488">
        <ele>57.491</ele>
        <time>2018-04-08T11:32:22Z</time>
      </trkpt>
      <trkpt lat="36.762342" lon="-4.426515">
        <ele>54.540</ele>
        <time>2018-04-08T11:32:58Z</time>
      </trkpt>
      <trkpt lat="36.762302" lon="-4.426549">
        <ele>53.599</ele>
        <time>2018-04-08T11:33:05Z</time>
      </trkpt>
      <trkpt lat="36.762254" lon="-4.426537">
        <ele>52.670</ele>
        <time>2018-04-08T11:33:11Z</time>
      </trkpt>
      <trkpt lat="36.762210" lon="-4.426521">
        <ele>52.352</ele>
        <time>2018-04-08T11:34:07Z</time>
      </trkpt>
      <trkpt lat="36.762179" lon="-4.426457">
        <ele>54.353</ele>
        <time>2018-04-08T11:34:24Z</time>
      </trkpt>
      <trkpt lat="36.762239" lon="-4.426528">
        <ele>54.108</ele>
        <time>2018-04-08T11:34:54Z</time>
      </trkpt>
      <trkpt lat="36.762251" lon="-4.426586">
        <ele>53.008</ele>
        <time>2018-04-08T11:35:22Z</time>
      </trkpt>
      <trkpt lat="36.762220" lon="-4.426626">
        <ele>52.267</ele>
        <time>2018-04-08T11:35:36Z</time>
      </trkpt>
      <trkpt lat="36.762202" lon="-4.426682">
        <ele>52.378</ele>
        <time>2018-04-08T11:35:45Z</time>
      </trkpt>
      <trkpt lat="36.762148" lon="-4.426709">
        <ele>52.453</ele>
        <time>2018-04-08T11:35:52Z</time>
      </trkpt>
      <trkpt lat="36.762097" lon="-4.426737">
        <ele>52.148</ele>
        <time>2018-04-08T11:35:56Z</time>
      </trkpt>
      <trkpt lat="36.762052" lon="-4.426757">
        <ele>52.192</ele>
        <time>2018-04-08T11:35:59Z</time>
      </trkpt>
      <trkpt lat="36.762011" lon="-4.426787">
        <ele>51.731</ele>
        <time>2018-04-08T11:36:03Z</time>
      </trkpt>
      <trkpt lat="36.761979" lon="-4.426838">
        <ele>51.920</ele>
        <time>2018-04-08T11:36:08Z</time>
      </trkpt>
      <trkpt lat="36.761950" lon="-4.426882">
        <ele>52.391</ele>
        <time>2018-04-08T11:36:14Z</time>
      </trkpt>
      <trkpt lat="36.761922" lon="-4.426928">
        <ele>52.265</ele>
        <time>2018-04-08T11:36:34Z</time>
      </trkpt>
      <trkpt lat="36.761874" lon="-4.426963">
        <ele>50.968</ele>
        <time>2018-04-08T11:40:45Z</time>
      </trkpt>
      <trkpt lat="36.761829" lon="-4.426982">
        <ele>50.614</ele>
        <time>2018-04-08T11:41:23Z</time>
      </trkpt>
      <trkpt lat="36.761785" lon="-4.426968">
        <ele>50.808</ele>
        <time>2018-04-08T11:41:39Z</time>
      </trkpt>
      <trkpt lat="36.761739" lon="-4.426988">
        <ele>50.958</ele>
        <time>2018-04-08T11:41:46Z</time>
      </trkpt>
      <trkpt lat="36.761698" lon="-4.427014">
        <ele>51.289</ele>
        <time>2018-04-08T11:41:51Z</time>
      </trkpt>
      <trkpt lat="36.761653" lon="-4.427042">
        <ele>51.464</ele>
        <time>2018-04-08T11:41:57Z</time>
      </trkpt>
      <trkpt lat="36.761605" lon="-4.427059">
        <ele>51.489</ele>
        <time>2018-04-08T11:42:02Z</time>
      </trkpt>
      <trkpt lat="36.761560" lon="-4.427067">
        <ele>51.733</ele>
        <time>2018-04-08T11:42:07Z</time>
      </trkpt>
      <trkpt lat="36.761515" lon="-4.427074">
        <ele>51.592</ele>
        <time>2018-04-08T11:42:13Z</time>
      </trkpt>
      <trkpt lat="36.761467" lon="-4.427079">
        <ele>50.541</ele>
        <time>2018-04-08T11:42:17Z</time>
      </trkpt>
      <trkpt lat="36.761418" lon="-4.427083">
        <ele>50.442</ele>
        <time>2018-04-08T11:42:21Z</time>
      </trkpt>
      <trkpt lat="36.761348" lon="-4.427073">
        <ele>50.826</ele>
        <time>2018-04-08T11:42:43Z</time>
      </trkpt>
      <trkpt lat="36.761291" lon="-4.427087">
        <ele>50.847</ele>
        <time>2018-04-08T11:42:47Z</time>
      </trkpt>
      <trkpt lat="36.761246" lon="-4.427090">
        <ele>51.011</ele>
        <time>2018-04-08T11:42:50Z</time>
      </trkpt>
      <trkpt lat="36.761187" lon="-4.427098">
        <ele>50.308</ele>
        <time>2018-04-08T11:42:53Z</time>
      </trkpt>
      <trkpt lat="36.761134" lon="-4.427105">
        <ele>49.844</ele>
        <time>2018-04-08T11:42:56Z</time>
      </trkpt>
      <trkpt lat="36.761084" lon="-4.427109">
        <ele>48.965</ele>
        <time>2018-04-08T11:43:19Z</time>
      </trkpt>
      <trkpt lat="36.761045" lon="-4.427145">
        <ele>47.880</ele>
        <time>2018-04-08T11:44:15Z</time>
      </trkpt>
      <trkpt lat="36.761005" lon="-4.427113">
        <ele>49.355</ele>
        <time>2018-04-08T11:44:40Z</time>
      </trkpt>
      <trkpt lat="36.760956" lon="-4.427114">
        <ele>49.399</ele>
        <time>2018-04-08T11:44:48Z</time>
      </trkpt>
      <trkpt lat="36.760915" lon="-4.427140">
        <ele>50.238</ele>
        <time>2018-04-08T11:44:54Z</time>
      </trkpt>
      <trkpt lat="36.760871" lon="-4.427161">
        <ele>51.337</ele>
        <time>2018-04-08T11:44:59Z</time>
      </trkpt>
      <trkpt lat="36.760821" lon="-4.427163">
        <ele>48.948</ele>
        <time>2018-04-08T11:45:20Z</time>
      </trkpt>
      <trkpt lat="36.760777" lon="-4.427131">
        <ele>48.758</ele>
        <time>2018-04-08T11:45:51Z</time>
      </trkpt>
      <trkpt lat="36.760774" lon="-4.427070">
        <ele>52.352</ele>
        <time>2018-04-08T11:46:51Z</time>
      </trkpt>
      <trkpt lat="36.760757" lon="-4.427014">
        <ele>51.417</ele>
        <time>2018-04-08T11:46:55Z</time>
      </trkpt>
      <trkpt lat="36.760763" lon="-4.426957">
        <ele>49.208</ele>
        <time>2018-04-08T11:47:01Z</time>
      </trkpt>
      <trkpt lat="36.760746" lon="-4.426894">
        <ele>48.937</ele>
        <time>2018-04-08T11:47:08Z</time>
      </trkpt>
      <trkpt lat="36.760722" lon="-4.426843">
        <ele>49.398</ele>
        <time>2018-04-08T11:47:12Z</time>
      </trkpt>
      <trkpt lat="36.760686" lon="-4.426806">
        <ele>49.433</ele>
        <time>2018-04-08T11:47:16Z</time>
      </trkpt>
      <trkpt lat="36.760658" lon="-4.426760">
        <ele>48.018</ele>
        <time>2018-04-08T11:47:20Z</time>
      </trkpt>
      <trkpt lat="36.760623" lon="-4.426635">
        <ele>46.952</ele>
        <time>2018-04-08T11:47:33Z</time>
      </trkpt>
      <trkpt lat="36.760567" lon="-4.426602">
        <ele>50.511</ele>
        <time>2018-04-08T11:48:07Z</time>
      </trkpt>
      <trkpt lat="36.760526" lon="-4.426541">
        <ele>50.230</ele>
        <time>2018-04-08T11:48:15Z</time>
      </trkpt>
      <trkpt lat="36.760552" lon="-4.426475">
        <ele>49.681</ele>
        <time>2018-04-08T11:48:19Z</time>
      </trkpt>
      <trkpt lat="36.760564" lon="-4.426410">
        <ele>48.927</ele>
        <time>2018-04-08T11:48:26Z</time>
      </trkpt>
      <trkpt lat="36.760586" lon="-4.426359">
        <ele>47.568</ele>
        <time>2018-04-08T11:49:35Z</time>
      </trkpt>
      <trkpt lat="36.760573" lon="-4.426297">
        <ele>45.314</ele>
        <time>2018-04-08T11:50:53Z</time>
      </trkpt>
      <trkpt lat="36.760605" lon="-4.426366">
        <ele>48.508</ele>
        <time>2018-04-08T11:55:43Z</time>
      </trkpt>
      <trkpt lat="36.760660" lon="-4.426425">
        <ele>49.054</ele>
        <time>2018-04-08T11:55:58Z</time>
      </trkpt>
      <trkpt lat="36.760725" lon="-4.426649">
        <ele>48.515</ele>
        <time>2018-04-08T11:56:15Z</time>
      </trkpt>
      <trkpt lat="36.760732" lon="-4.426706">
        <ele>47.250</ele>
        <time>2018-04-08T11:56:26Z</time>
      </trkpt>
      <trkpt lat="36.760766" lon="-4.426748">
        <ele>47.795</ele>
        <time>2018-04-08T11:56:34Z</time>
      </trkpt>
      <trkpt lat="36.760775" lon="-4.426804">
        <ele>48.069</ele>
        <time>2018-04-08T11:56:44Z</time>
      </trkpt>
      <trkpt lat="36.760804" lon="-4.426852">
        <ele>47.668</ele>
        <time>2018-04-08T11:56:52Z</time>
      </trkpt>
      <trkpt lat="36.760791" lon="-4.426908">
        <ele>49.037</ele>
        <time>2018-04-08T11:57:27Z</time>
      </trkpt>
      <trkpt lat="36.760780" lon="-4.426964">
        <ele>48.848</ele>
        <time>2018-04-08T11:57:31Z</time>
      </trkpt>
      <trkpt lat="36.760759" lon="-4.427022">
        <ele>48.213</ele>
        <time>2018-04-08T11:57:37Z</time>
      </trkpt>
      <trkpt lat="36.760767" lon="-4.427083">
        <ele>47.943</ele>
        <time>2018-04-08T11:57:42Z</time>
      </trkpt>
      <trkpt lat="36.760739" lon="-4.427142">
        <ele>47.707</ele>
        <time>2018-04-08T11:57:47Z</time>
      </trkpt>
      <trkpt lat="36.760696" lon="-4.427185">
        <ele>47.908</ele>
        <time>2018-04-08T11:57:50Z</time>
      </trkpt>
      <trkpt lat="36.760658" lon="-4.427234">
        <ele>47.783</ele>
        <time>2018-04-08T11:57:54Z</time>
      </trkpt>
      <trkpt lat="36.760615" lon="-4.427265">
        <ele>47.564</ele>
        <time>2018-04-08T11:57:58Z</time>
      </trkpt>
      <trkpt lat="36.760573" lon="-4.427312">
        <ele>48.019</ele>
        <time>2018-04-08T11:58:03Z</time>
      </trkpt>
      <trkpt lat="36.760525" lon="-4.427335">
        <ele>46.084</ele>
        <time>2018-04-08T11:58:08Z</time>
      </trkpt>
      <trkpt lat="36.760493" lon="-4.427384">
        <ele>48.418</ele>
        <time>2018-04-08T11:58:15Z</time>
      </trkpt>
      <trkpt lat="36.760447" lon="-4.427426">
        <ele>49.177</ele>
        <time>2018-04-08T11:58:20Z</time>
      </trkpt>
      <trkpt lat="36.760408" lon="-4.427463">
        <ele>46.626</ele>
        <time>2018-04-08T11:58:27Z</time>
      </trkpt>
      <trkpt lat="36.760363" lon="-4.427486">
        <ele>46.717</ele>
        <time>2018-04-08T11:58:33Z</time>
      </trkpt>
      <trkpt lat="36.760305" lon="-4.427485">
        <ele>47.212</ele>
        <time>2018-04-08T11:58:39Z</time>
      </trkpt>
      <trkpt lat="36.760265" lon="-4.427516">
        <ele>46.732</ele>
        <time>2018-04-08T11:58:49Z</time>
      </trkpt>
      <trkpt lat="36.760231" lon="-4.427560">
        <ele>46.805</ele>
        <time>2018-04-08T11:58:55Z</time>
      </trkpt>
      <trkpt lat="36.760201" lon="-4.427606">
        <ele>47.308</ele>
        <time>2018-04-08T11:58:59Z</time>
      </trkpt>
      <trkpt lat="36.760156" lon="-4.427647">
        <ele>46.363</ele>
        <time>2018-04-08T11:59:03Z</time>
      </trkpt>
      <trkpt lat="36.760117" lon="-4.427683">
        <ele>47.544</ele>
        <time>2018-04-08T11:59:06Z</time>
      </trkpt>
      <trkpt lat="36.760086" lon="-4.427729">
        <ele>46.819</ele>
        <time>2018-04-08T11:59:09Z</time>
      </trkpt>
      <trkpt lat="36.760038" lon="-4.427766">
        <ele>46.384</ele>
        <time>2018-04-08T11:59:13Z</time>
      </trkpt>
      <trkpt lat="36.759994" lon="-4.427790">
        <ele>45.868</ele>
        <time>2018-04-08T11:59:17Z</time>
      </trkpt>
      <trkpt lat="36.759953" lon="-4.427819">
        <ele>45.027</ele>
        <time>2018-04-08T11:59:21Z</time>
      </trkpt>
      <trkpt lat="36.759907" lon="-4.427846">
        <ele>45.676</ele>
        <time>2018-04-08T11:59:25Z</time>
      </trkpt>
      <trkpt lat="36.759865" lon="-4.427890">
        <ele>44.787</ele>
        <time>2018-04-08T11:59:30Z</time>
      </trkpt>
      <trkpt lat="36.759830" lon="-4.427938">
        <ele>44.795</ele>
        <time>2018-04-08T11:59:35Z</time>
      </trkpt>
      <trkpt lat="36.759793" lon="-4.427981">
        <ele>45.149</ele>
        <time>2018-04-08T11:59:40Z</time>
      </trkpt>
      <trkpt lat="36.759751" lon="-4.428009">
        <ele>45.623</ele>
        <time>2018-04-08T11:59:45Z</time>
      </trkpt>
      <trkpt lat="36.759713" lon="-4.428040">
        <ele>45.908</ele>
        <time>2018-04-08T11:59:49Z</time>
      </trkpt>
      <trkpt lat="36.759677" lon="-4.428081">
        <ele>46.321</ele>
        <time>2018-04-08T11:59:55Z</time>
      </trkpt>
      <trkpt lat="36.759643" lon="-4.428124">
        <ele>46.962</ele>
        <time>2018-04-08T12:00:01Z</time>
      </trkpt>
      <trkpt lat="36.759611" lon="-4.428170">
        <ele>48.277</ele>
        <time>2018-04-08T12:00:09Z</time>
      </trkpt>
      <trkpt lat="36.759579" lon="-4.428214">
        <ele>48.672</ele>
        <time>2018-04-08T12:00:15Z</time>
      </trkpt>
      <trkpt lat="36.759545" lon="-4.428258">
        <ele>48.576</ele>
        <time>2018-04-08T12:00:20Z</time>
      </trkpt>
      <trkpt lat="36.759509" lon="-4.428299">
        <ele>49.635</ele>
        <time>2018-04-08T12:00:26Z</time>
      </trkpt>
      <trkpt lat="36.759478" lon="-4.428344">
        <ele>49.754</ele>
        <time>2018-04-08T12:00:34Z</time>
      </trkpt>
      <trkpt lat="36.759436" lon="-4.428366">
        <ele>50.155</ele>
        <time>2018-04-08T12:00:41Z</time>
      </trkpt>
      <trkpt lat="36.759388" lon="-4.428364">
        <ele>51.152</ele>
        <time>2018-04-08T12:00:46Z</time>
      </trkpt>
      <trkpt lat="36.759346" lon="-4.428388">
        <ele>52.053</ele>
        <time>2018-04-08T12:00:52Z</time>
      </trkpt>
      <trkpt lat="36.759306" lon="-4.428426">
        <ele>52.008</ele>
        <time>2018-04-08T12:00:58Z</time>
      </trkpt>
      <trkpt lat="36.759276" lon="-4.428475">
        <ele>52.108</ele>
        <time>2018-04-08T12:01:05Z</time>
      </trkpt>
      <trkpt lat="36.759252" lon="-4.428528">
        <ele>53.587</ele>
        <time>2018-04-08T12:01:12Z</time>
      </trkpt>
      <trkpt lat="36.759256" lon="-4.428589">
        <ele>55.598</ele>
        <time>2018-04-08T12:01:29Z</time>
      </trkpt>
      <trkpt lat="36.759231" lon="-4.428639">
        <ele>56.583</ele>
        <time>2018-04-08T12:01:34Z</time>
      </trkpt>
      <trkpt lat="36.759197" lon="-4.428687">
        <ele>57.588</ele>
        <time>2018-04-08T12:02:04Z</time>
      </trkpt>
      <trkpt lat="36.759172" lon="-4.428742">
        <ele>57.912</ele>
        <time>2018-04-08T12:02:10Z</time>
      </trkpt>
      <trkpt lat="36.759121" lon="-4.428757">
        <ele>56.941</ele>
        <time>2018-04-08T12:02:17Z</time>
      </trkpt>
      <trkpt lat="36.759079" lon="-4.428792">
        <ele>57.820</ele>
        <time>2018-04-08T12:02:22Z</time>
      </trkpt>
      <trkpt lat="36.759034" lon="-4.428821">
        <ele>59.481</ele>
        <time>2018-04-08T12:02:27Z</time>
      </trkpt>
      <trkpt lat="36.758982" lon="-4.428829">
        <ele>60.895</ele>
        <time>2018-04-08T12:02:33Z</time>
      </trkpt>
      <trkpt lat="36.758946" lon="-4.428867">
        <ele>61.249</ele>
        <time>2018-04-08T12:02:39Z</time>
      </trkpt>
      <trkpt lat="36.758902" lon="-4.428837">
        <ele>59.023</ele>
        <time>2018-04-08T12:03:01Z</time>
      </trkpt>
      <trkpt lat="36.758853" lon="-4.428824">
        <ele>59.208</ele>
        <time>2018-04-08T12:03:05Z</time>
      </trkpt>
      <trkpt lat="36.758803" lon="-4.428804">
        <ele>60.181</ele>
        <time>2018-04-08T12:03:12Z</time>
      </trkpt>
      <trkpt lat="36.758760" lon="-4.428784">
        <ele>60.592</ele>
        <time>2018-04-08T12:03:17Z</time>
      </trkpt>
      <trkpt lat="36.758712" lon="-4.428754">
        <ele>60.257</ele>
        <time>2018-04-08T12:03:47Z</time>
      </trkpt>
      <trkpt lat="36.758660" lon="-4.428752">
        <ele>60.952</ele>
        <time>2018-04-08T12:03:52Z</time>
      </trkpt>
      <trkpt lat="36.758605" lon="-4.428753">
        <ele>60.826</ele>
        <time>2018-04-08T12:03:58Z</time>
      </trkpt>
      <trkpt lat="36.758564" lon="-4.428779">
        <ele>60.115</ele>
        <time>2018-04-08T12:04:06Z</time>
      </trkpt>
      <trkpt lat="36.758536" lon="-4.428824">
        <ele>61.314</ele>
        <time>2018-04-08T12:04:39Z</time>
      </trkpt>
      <trkpt lat="36.758486" lon="-4.428841">
        <ele>60.625</ele>
        <time>2018-04-08T12:08:22Z</time>
      </trkpt>
      <trkpt lat="36.758532" lon="-4.428814">
        <ele>59.988</ele>
        <time>2018-04-08T12:09:24Z</time>
      </trkpt>
      <trkpt lat="36.758577" lon="-4.428840">
        <ele>58.124</ele>
        <time>2018-04-08T12:10:07Z</time>
      </trkpt>
      <trkpt lat="36.758614" lon="-4.428881">
        <ele>59.226</ele>
        <time>2018-04-08T12:10:15Z</time>
      </trkpt>
      <trkpt lat="36.758660" lon="-4.428883">
        <ele>59.208</ele>
        <time>2018-04-08T12:10:22Z</time>
      </trkpt>
      <trkpt lat="36.758714" lon="-4.428902">
        <ele>58.810</ele>
        <time>2018-04-08T12:10:29Z</time>
      </trkpt>
      <trkpt lat="36.758757" lon="-4.428923">
        <ele>59.161</ele>
        <time>2018-04-08T12:10:34Z</time>
      </trkpt>
      <trkpt lat="36.758803" lon="-4.428929">
        <ele>58.056</ele>
        <time>2018-04-08T12:10:42Z</time>
      </trkpt>
      <trkpt lat="36.758851" lon="-4.428947">
        <ele>60.051</ele>
        <time>2018-04-08T12:11:19Z</time>
      </trkpt>
      <trkpt lat="36.758899" lon="-4.428947">
        <ele>60.415</ele>
        <time>2018-04-08T12:11:23Z</time>
      </trkpt>
      <trkpt lat="36.758955" lon="-4.428956">
        <ele>61.674</ele>
        <time>2018-04-08T12:11:35Z</time>
      </trkpt>
      <trkpt lat="36.758990" lon="-4.428997">
        <ele>61.693</ele>
        <time>2018-04-08T12:11:50Z</time>
      </trkpt>
      <trkpt lat="36.759044" lon="-4.429039">
        <ele>61.124</ele>
        <time>2018-04-08T12:11:54Z</time>
      </trkpt>
      <trkpt lat="36.759093" lon="-4.429063">
        <ele>60.084</ele>
        <time>2018-04-08T12:12:00Z</time>
      </trkpt>
      <trkpt lat="36.759137" lon="-4.429095">
        <ele>60.807</ele>
        <time>2018-04-08T12:12:05Z</time>
      </trkpt>
      <trkpt lat="36.759186" lon="-4.429091">
        <ele>62.417</ele>
        <time>2018-04-08T12:12:24Z</time>
      </trkpt>
      <trkpt lat="36.759235" lon="-4.429093">
        <ele>65.608</ele>
        <time>2018-04-08T12:12:32Z</time>
      </trkpt>
      <trkpt lat="36.759284" lon="-4.429074">
        <ele>65.540</ele>
        <time>2018-04-08T12:12:38Z</time>
      </trkpt>
      <trkpt lat="36.759316" lon="-4.429021">
        <ele>65.021</ele>
        <time>2018-04-08T12:12:46Z</time>
      </trkpt>
      <trkpt lat="36.759361" lon="-4.428996">
        <ele>68.146</ele>
        <time>2018-04-08T12:13:58Z</time>
      </trkpt>
      <trkpt lat="36.759348" lon="-4.429053">
        <ele>70.271</ele>
        <time>2018-04-08T12:14:10Z</time>
      </trkpt>
      <trkpt lat="36.759329" lon="-4.429105">
        <ele>70.255</ele>
        <time>2018-04-08T12:14:18Z</time>
      </trkpt>
      <trkpt lat="36.759308" lon="-4.429161">
        <ele>69.574</ele>
        <time>2018-04-08T12:14:24Z</time>
      </trkpt>
      <trkpt lat="36.759355" lon="-4.429152">
        <ele>70.893</ele>
        <time>2018-04-08T12:14:35Z</time>
      </trkpt>
      <trkpt lat="36.759371" lon="-4.429089">
        <ele>71.074</ele>
        <time>2018-04-08T12:14:57Z</time>
      </trkpt>
      <trkpt lat="36.759400" lon="-4.429044">
        <ele>72.496</ele>
        <time>2018-04-08T12:15:05Z</time>
      </trkpt>
      <trkpt lat="36.759447" lon="-4.429008">
        <ele>73.531</ele>
        <time>2018-04-08T12:15:10Z</time>
      </trkpt>
      <trkpt lat="36.759487" lon="-4.428960">
        <ele>73.224</ele>
        <time>2018-04-08T12:15:15Z</time>
      </trkpt>
      <trkpt lat="36.759525" lon="-4.428909">
        <ele>73.408</ele>
        <time>2018-04-08T12:15:20Z</time>
      </trkpt>
      <trkpt lat="36.759562" lon="-4.428864">
        <ele>76.771</ele>
        <time>2018-04-08T12:15:25Z</time>
      </trkpt>
      <trkpt lat="36.759610" lon="-4.428840">
        <ele>76.182</ele>
        <time>2018-04-08T12:15:35Z</time>
      </trkpt>
      <trkpt lat="36.759659" lon="-4.428827">
        <ele>76.557</ele>
        <time>2018-04-08T12:15:40Z</time>
      </trkpt>
      <trkpt lat="36.759711" lon="-4.428805">
        <ele>77.152</ele>
        <time>2018-04-08T12:15:45Z</time>
      </trkpt>
      <trkpt lat="36.759757" lon="-4.428782">
        <ele>77.216</ele>
        <time>2018-04-08T12:15:50Z</time>
      </trkpt>
      <trkpt lat="36.759802" lon="-4.428752">
        <ele>77.535</ele>
        <time>2018-04-08T12:15:57Z</time>
      </trkpt>
      <trkpt lat="36.759850" lon="-4.428731">
        <ele>77.854</ele>
        <time>2018-04-08T12:16:03Z</time>
      </trkpt>
      <trkpt lat="36.759899" lon="-4.428722">
        <ele>78.445</ele>
        <time>2018-04-08T12:16:08Z</time>
      </trkpt>
      <trkpt lat="36.759942" lon="-4.428705">
        <ele>79.413</ele>
        <time>2018-04-08T12:16:14Z</time>
      </trkpt>
      <trkpt lat="36.759986" lon="-4.428676">
        <ele>79.343</ele>
        <time>2018-04-08T12:16:21Z</time>
      </trkpt>
      <trkpt lat="36.760023" lon="-4.428616">
        <ele>80.207</ele>
        <time>2018-04-08T12:16:43Z</time>
      </trkpt>
      <trkpt lat="36.760070" lon="-4.428602">
        <ele>80.508</ele>
        <time>2018-04-08T12:16:46Z</time>
      </trkpt>
      <trkpt lat="36.760139" lon="-4.428553">
        <ele>80.983</ele>
        <time>2018-04-08T12:17:03Z</time>
      </trkpt>
      <trkpt lat="36.760185" lon="-4.428515">
        <ele>80.974</ele>
        <time>2018-04-08T12:18:06Z</time>
      </trkpt>
      <trkpt lat="36.760249" lon="-4.428501">
        <ele>81.229</ele>
        <time>2018-04-08T12:18:21Z</time>
      </trkpt>
      <trkpt lat="36.760202" lon="-4.428506">
        <ele>80.694</ele>
        <time>2018-04-08T12:18:50Z</time>
      </trkpt>
      <trkpt lat="36.760250" lon="-4.428478">
        <ele>80.888</ele>
        <time>2018-04-08T12:19:09Z</time>
      </trkpt>
      <trkpt lat="36.760306" lon="-4.428466">
        <ele>81.047</ele>
        <time>2018-04-08T12:19:15Z</time>
      </trkpt>
      <trkpt lat="36.760352" lon="-4.428467">
        <ele>81.666</ele>
        <time>2018-04-08T12:19:19Z</time>
      </trkpt>
      <trkpt lat="36.760398" lon="-4.428468">
        <ele>81.077</ele>
        <time>2018-04-08T12:19:25Z</time>
      </trkpt>
      <trkpt lat="36.760450" lon="-4.428471">
        <ele>80.674</ele>
        <time>2018-04-08T12:19:29Z</time>
      </trkpt>
      <trkpt lat="36.760494" lon="-4.428449">
        <ele>80.556</ele>
        <time>2018-04-08T12:19:34Z</time>
      </trkpt>
      <trkpt lat="36.760544" lon="-4.428407">
        <ele>81.221</ele>
        <time>2018-04-08T12:19:38Z</time>
      </trkpt>
      <trkpt lat="36.760592" lon="-4.428366">
        <ele>81.908</ele>
        <time>2018-04-08T12:19:42Z</time>
      </trkpt>
      <trkpt lat="36.760903" lon="-4.428307">
        <ele>84.919</ele>
        <time>2018-04-08T12:20:09Z</time>
      </trkpt>
      <trkpt lat="36.760951" lon="-4.428331">
        <ele>84.140</ele>
        <time>2018-04-08T12:20:14Z</time>
      </trkpt>
      <trkpt lat="36.760996" lon="-4.428366">
        <ele>83.495</ele>
        <time>2018-04-08T12:20:19Z</time>
      </trkpt>
      <trkpt lat="36.761041" lon="-4.428386">
        <ele>82.740</ele>
        <time>2018-04-08T12:20:23Z</time>
      </trkpt>
      <trkpt lat="36.761094" lon="-4.428377">
        <ele>82.734</ele>
        <time>2018-04-08T12:20:26Z</time>
      </trkpt>
      <trkpt lat="36.761147" lon="-4.428366">
        <ele>82.853</ele>
        <time>2018-04-08T12:20:31Z</time>
      </trkpt>
      <trkpt lat="36.761193" lon="-4.428341">
        <ele>84.212</ele>
        <time>2018-04-08T12:20:40Z</time>
      </trkpt>
      <trkpt lat="36.761238" lon="-4.428322">
        <ele>84.483</ele>
        <time>2018-04-08T12:20:45Z</time>
      </trkpt>
      <trkpt lat="36.761284" lon="-4.428314">
        <ele>84.639</ele>
        <time>2018-04-08T12:20:48Z</time>
      </trkpt>
      <trkpt lat="36.761337" lon="-4.428322">
        <ele>85.201</ele>
        <time>2018-04-08T12:20:51Z</time>
      </trkpt>
      <trkpt lat="36.761393" lon="-4.428336">
        <ele>84.921</ele>
        <time>2018-04-08T12:20:55Z</time>
      </trkpt>
      <trkpt lat="36.761442" lon="-4.428367">
        <ele>84.508</ele>
        <time>2018-04-08T12:21:03Z</time>
      </trkpt>
      <trkpt lat="36.761482" lon="-4.428396">
        <ele>84.925</ele>
        <time>2018-04-08T12:21:06Z</time>
      </trkpt>
      <trkpt lat="36.761527" lon="-4.428408">
        <ele>83.986</ele>
        <time>2018-04-08T12:21:10Z</time>
      </trkpt>
      <trkpt lat="36.761578" lon="-4.428422">
        <ele>83.281</ele>
        <time>2018-04-08T12:21:15Z</time>
      </trkpt>
      <trkpt lat="36.761626" lon="-4.428419">
        <ele>83.826</ele>
        <time>2018-04-08T12:21:18Z</time>
      </trkpt>
      <trkpt lat="36.761669" lon="-4.428402">
        <ele>85.110</ele>
        <time>2018-04-08T12:21:22Z</time>
      </trkpt>
      <trkpt lat="36.761712" lon="-4.428347">
        <ele>85.439</ele>
        <time>2018-04-08T12:21:27Z</time>
      </trkpt>
      <trkpt lat="36.761752" lon="-4.428302">
        <ele>85.048</ele>
        <time>2018-04-08T12:21:32Z</time>
      </trkpt>
      <trkpt lat="36.761799" lon="-4.428290">
        <ele>84.469</ele>
        <time>2018-04-08T12:21:36Z</time>
      </trkpt>
      <trkpt lat="36.761844" lon="-4.428289">
        <ele>85.275</ele>
        <time>2018-04-08T12:21:40Z</time>
      </trkpt>
      <trkpt lat="36.761893" lon="-4.428292">
        <ele>84.428</ele>
        <time>2018-04-08T12:21:44Z</time>
      </trkpt>
      <trkpt lat="36.761939" lon="-4.428278">
        <ele>86.120</ele>
        <time>2018-04-08T12:21:48Z</time>
      </trkpt>
      <trkpt lat="36.761982" lon="-4.428246">
        <ele>85.008</ele>
        <time>2018-04-08T12:21:53Z</time>
      </trkpt>
      <trkpt lat="36.762005" lon="-4.428183">
        <ele>84.879</ele>
        <time>2018-04-08T12:21:58Z</time>
      </trkpt>
      <trkpt lat="36.762017" lon="-4.428121">
        <ele>86.470</ele>
        <time>2018-04-08T12:22:02Z</time>
      </trkpt>
      <trkpt lat="36.762034" lon="-4.428060">
        <ele>84.885</ele>
        <time>2018-04-08T12:22:06Z</time>
      </trkpt>
      <trkpt lat="36.762059" lon="-4.428003">
        <ele>85.950</ele>
        <time>2018-04-08T12:22:10Z</time>
      </trkpt>
      <trkpt lat="36.762098" lon="-4.427958">
        <ele>86.014</ele>
        <time>2018-04-08T12:22:36Z</time>
      </trkpt>
      <trkpt lat="36.762158" lon="-4.427958">
        <ele>85.823</ele>
        <time>2018-04-08T12:22:40Z</time>
      </trkpt>
      <trkpt lat="36.762214" lon="-4.427963">
        <ele>86.292</ele>
        <time>2018-04-08T12:22:43Z</time>
      </trkpt>
      <trkpt lat="36.762264" lon="-4.427979">
        <ele>85.683</ele>
        <time>2018-04-08T12:22:49Z</time>
      </trkpt>
      <trkpt lat="36.762316" lon="-4.427971">
        <ele>84.079</ele>
        <time>2018-04-08T12:22:53Z</time>
      </trkpt>
      <trkpt lat="36.762359" lon="-4.427943">
        <ele>84.105</ele>
        <time>2018-04-08T12:22:57Z</time>
      </trkpt>
      <trkpt lat="36.762398" lon="-4.427902">
        <ele>84.925</ele>
        <time>2018-04-08T12:23:01Z</time>
      </trkpt>
      <trkpt lat="36.762420" lon="-4.427842">
        <ele>85.308</ele>
        <time>2018-04-08T12:23:05Z</time>
      </trkpt>
      <trkpt lat="36.762439" lon="-4.427789">
        <ele>85.469</ele>
        <time>2018-04-08T12:23:08Z</time>
      </trkpt>
      <trkpt lat="36.762475" lon="-4.427736">
        <ele>86.550</ele>
        <time>2018-04-08T12:23:12Z</time>
      </trkpt>
      <trkpt lat="36.762499" lon="-4.427687">
        <ele>86.785</ele>
        <time>2018-04-08T12:23:16Z</time>
      </trkpt>
      <trkpt lat="36.762529" lon="-4.427637">
        <ele>86.260</ele>
        <time>2018-04-08T12:23:20Z</time>
      </trkpt>
      <trkpt lat="36.762562" lon="-4.427585">
        <ele>86.434</ele>
        <time>2018-04-08T12:23:24Z</time>
      </trkpt>
      <trkpt lat="36.762601" lon="-4.427536">
        <ele>86.483</ele>
        <time>2018-04-08T12:23:28Z</time>
      </trkpt>
      <trkpt lat="36.762647" lon="-4.427496">
        <ele>86.872</ele>
        <time>2018-04-08T12:23:32Z</time>
      </trkpt>
      <trkpt lat="36.762691" lon="-4.427457">
        <ele>86.993</ele>
        <time>2018-04-08T12:23:36Z</time>
      </trkpt>
      <trkpt lat="36.762732" lon="-4.427413">
        <ele>88.098</ele>
        <time>2018-04-08T12:23:41Z</time>
      </trkpt>
      <trkpt lat="36.762781" lon="-4.427386">
        <ele>88.315</ele>
        <time>2018-04-08T12:23:45Z</time>
      </trkpt>
      <trkpt lat="36.762835" lon="-4.427360">
        <ele>89.426</ele>
        <time>2018-04-08T12:23:49Z</time>
      </trkpt>
      <trkpt lat="36.762889" lon="-4.427343">
        <ele>88.108</ele>
        <time>2018-04-08T12:23:53Z</time>
      </trkpt>
      <trkpt lat="36.762945" lon="-4.427337">
        <ele>87.671</ele>
        <time>2018-04-08T12:23:57Z</time>
      </trkpt>
      <trkpt lat="36.762997" lon="-4.427338">
        <ele>88.472</ele>
        <time>2018-04-08T12:24:01Z</time>
      </trkpt>
      <trkpt lat="36.763054" lon="-4.427329">
        <ele>87.477</ele>
        <time>2018-04-08T12:24:05Z</time>
      </trkpt>
      <trkpt lat="36.763105" lon="-4.427329">
        <ele>88.482</ele>
        <time>2018-04-08T12:24:09Z</time>
      </trkpt>
      <trkpt lat="36.763148" lon="-4.427311">
        <ele>87.426</ele>
        <time>2018-04-08T12:24:13Z</time>
      </trkpt>
      <trkpt lat="36.763183" lon="-4.427263">
        <ele>88.015</ele>
        <time>2018-04-08T12:24:20Z</time>
      </trkpt>
      <trkpt lat="36.763182" lon="-4.427191">
        <ele>89.554</ele>
        <time>2018-04-08T12:24:25Z</time>
      </trkpt>
      <trkpt lat="36.763183" lon="-4.427129">
        <ele>89.015</ele>
        <time>2018-04-08T12:24:30Z</time>
      </trkpt>
      <trkpt lat="36.763187" lon="-4.427067">
        <ele>89.024</ele>
        <time>2018-04-08T12:24:35Z</time>
      </trkpt>
      <trkpt lat="36.763198" lon="-4.427004">
        <ele>89.304</ele>
        <time>2018-04-08T12:24:40Z</time>
      </trkpt>
      <trkpt lat="36.763222" lon="-4.426941">
        <ele>88.414</ele>
        <time>2018-04-08T12:24:45Z</time>
      </trkpt>
      <trkpt lat="36.763261" lon="-4.426897">
        <ele>88.408</ele>
        <time>2018-04-08T12:24:50Z</time>
      </trkpt>
      <trkpt lat="36.763314" lon="-4.426877">
        <ele>88.124</ele>
        <time>2018-04-08T12:24:56Z</time>
      </trkpt>
      <trkpt lat="36.763365" lon="-4.426859">
        <ele>90.395</ele>
        <time>2018-04-08T12:25:01Z</time>
      </trkpt>
      <trkpt lat="36.763415" lon="-4.426862">
        <ele>88.340</ele>
        <time>2018-04-08T12:25:06Z</time>
      </trkpt>
      <trkpt lat="36.763462" lon="-4.426884">
        <ele>87.525</ele>
        <time>2018-04-08T12:25:11Z</time>
      </trkpt>
      <trkpt lat="36.763509" lon="-4.426912">
        <ele>87.959</ele>
        <time>2018-04-08T12:25:16Z</time>
      </trkpt>
      <trkpt lat="36.763544" lon="-4.426950">
        <ele>89.798</ele>
        <time>2018-04-08T12:25:21Z</time>
      </trkpt>
      <trkpt lat="36.763573" lon="-4.426996">
        <ele>88.797</ele>
        <time>2018-04-08T12:25:26Z</time>
      </trkpt>
      <trkpt lat="36.763592" lon="-4.427050">
        <ele>90.588</ele>
        <time>2018-04-08T12:25:31Z</time>
      </trkpt>
      <trkpt lat="36.763629" lon="-4.427097">
        <ele>89.466</ele>
        <time>2018-04-08T12:25:36Z</time>
      </trkpt>
      <trkpt lat="36.763659" lon="-4.427146">
        <ele>89.129</ele>
        <time>2018-04-08T12:25:41Z</time>
      </trkpt>
      <trkpt lat="36.763700" lon="-4.427190">
        <ele>88.821</ele>
        <time>2018-04-08T12:25:46Z</time>
      </trkpt>
      <trkpt lat="36.763739" lon="-4.427235">
        <ele>88.108</ele>
        <time>2018-04-08T12:25:51Z</time>
      </trkpt>
      <trkpt lat="36.763775" lon="-4.427272">
        <ele>87.748</ele>
        <time>2018-04-08T12:25:55Z</time>
      </trkpt>
      <trkpt lat="36.763813" lon="-4.427305">
        <ele>88.899</ele>
        <time>2018-04-08T12:26:00Z</time>
      </trkpt>
      <trkpt lat="36.763867" lon="-4.427311">
        <ele>89.474</ele>
        <time>2018-04-08T12:26:05Z</time>
      </trkpt>
      <trkpt lat="36.763903" lon="-4.427261">
        <ele>89.439</ele>
        <time>2018-04-08T12:26:11Z</time>
      </trkpt>
      <trkpt lat="36.763917" lon="-4.427206">
        <ele>89.533</ele>
        <time>2018-04-08T12:26:15Z</time>
      </trkpt>
      <trkpt lat="36.763926" lon="-4.427143">
        <ele>91.452</ele>
        <time>2018-04-08T12:26:20Z</time>
      </trkpt>
      <trkpt lat="36.763930" lon="-4.427077">
        <ele>91.331</ele>
        <time>2018-04-08T12:26:26Z</time>
      </trkpt>
      <trkpt lat="36.763934" lon="-4.427013">
        <ele>92.862</ele>
        <time>2018-04-08T12:26:31Z</time>
      </trkpt>
      <trkpt lat="36.763937" lon="-4.426954">
        <ele>93.814</ele>
        <time>2018-04-08T12:26:36Z</time>
      </trkpt>
      <trkpt lat="36.763953" lon="-4.426891">
        <ele>92.554</ele>
        <time>2018-04-08T12:26:41Z</time>
      </trkpt>
      <trkpt lat="36.763972" lon="-4.426835">
        <ele>94.209</ele>
        <time>2018-04-08T12:26:46Z</time>
      </trkpt>
      <trkpt lat="36.763997" lon="-4.426785">
        <ele>93.208</ele>
        <time>2018-04-08T12:26:51Z</time>
      </trkpt>
      <trkpt lat="36.764038" lon="-4.426752">
        <ele>92.093</ele>
        <time>2018-04-08T12:26:56Z</time>
      </trkpt>
      <trkpt lat="36.764085" lon="-4.426723">
        <ele>92.534</ele>
        <time>2018-04-08T12:27:01Z</time>
      </trkpt>
      <trkpt lat="36.764127" lon="-4.426698">
        <ele>90.139</ele>
        <time>2018-04-08T12:27:05Z</time>
      </trkpt>
      <trkpt lat="36.764180" lon="-4.426684">
        <ele>89.754</ele>
        <time>2018-04-08T12:27:10Z</time>
      </trkpt>
      <trkpt lat="36.764236" lon="-4.426672">
        <ele>89.598</ele>
        <time>2018-04-08T12:27:15Z</time>
      </trkpt>
      <trkpt lat="36.764289" lon="-4.426676">
        <ele>89.987</ele>
        <time>2018-04-08T12:27:20Z</time>
      </trkpt>
      <trkpt lat="36.764335" lon="-4.426709">
        <ele>89.486</ele>
        <time>2018-04-08T12:27:26Z</time>
      </trkpt>
      <trkpt lat="36.764380" lon="-4.426749">
        <ele>90.017</ele>
        <time>2018-04-08T12:27:31Z</time>
      </trkpt>
      <trkpt lat="36.764419" lon="-4.426791">
        <ele>88.642</ele>
        <time>2018-04-08T12:27:37Z</time>
      </trkpt>
      <trkpt lat="36.764460" lon="-4.426836">
        <ele>88.222</ele>
        <time>2018-04-08T12:27:43Z</time>
      </trkpt>
      <trkpt lat="36.764507" lon="-4.426872">
        <ele>87.514</ele>
        <time>2018-04-08T12:27:48Z</time>
      </trkpt>
      <trkpt lat="36.764548" lon="-4.426897">
        <ele>88.908</ele>
        <time>2018-04-08T12:27:53Z</time>
      </trkpt>
      <trkpt lat="36.764598" lon="-4.426899">
        <ele>88.076</ele>
        <time>2018-04-08T12:27:58Z</time>
      </trkpt>
      <trkpt lat="36.764642" lon="-4.426879">
        <ele>90.057</ele>
        <time>2018-04-08T12:28:02Z</time>
      </trkpt>
      <trkpt lat="36.764662" lon="-4.426817">
        <ele>89.192</ele>
        <time>2018-04-08T12:28:07Z</time>
      </trkpt>
      <trkpt lat="36.764656" lon="-4.426750">
        <ele>88.917</ele>
        <time>2018-04-08T12:28:12Z</time>
      </trkpt>
      <trkpt lat="36.764653" lon="-4.426689">
        <ele>89.671</ele>
        <time>2018-04-08T12:28:17Z</time>
      </trkpt>
      <trkpt lat="36.764654" lon="-4.426631">
        <ele>91.740</ele>
        <time>2018-04-08T12:28:22Z</time>
      </trkpt>
      <trkpt lat="36.764631" lon="-4.426582">
        <ele>91.429</ele>
        <time>2018-04-08T12:28:39Z</time>
      </trkpt>
      <trkpt lat="36.764627" lon="-4.426521">
        <ele>91.370</ele>
        <time>2018-04-08T12:28:43Z</time>
      </trkpt>
      <trkpt lat="36.764640" lon="-4.426466">
        <ele>91.792</ele>
        <time>2018-04-08T12:28:48Z</time>
      </trkpt>
      <trkpt lat="36.764674" lon="-4.426408">
        <ele>91.173</ele>
        <time>2018-04-08T12:28:53Z</time>
      </trkpt>
      <trkpt lat="36.764720" lon="-4.426373">
        <ele>90.920</ele>
        <time>2018-04-08T12:28:57Z</time>
      </trkpt>
      <trkpt lat="36.764779" lon="-4.426375">
        <ele>89.908</ele>
        <time>2018-04-08T12:29:01Z</time>
      </trkpt>
      <trkpt lat="36.764820" lon="-4.426408">
        <ele>88.251</ele>
        <time>2018-04-08T12:29:07Z</time>
      </trkpt>
      <trkpt lat="36.764868" lon="-4.426432">
        <ele>86.912</ele>
        <time>2018-04-08T12:29:12Z</time>
      </trkpt>
      <trkpt lat="36.764913" lon="-4.426455">
        <ele>87.527</ele>
        <time>2018-04-08T12:29:16Z</time>
      </trkpt>
      <trkpt lat="36.764958" lon="-4.426481">
        <ele>88.522</ele>
        <time>2018-04-08T12:29:20Z</time>
      </trkpt>
      <trkpt lat="36.764997" lon="-4.426509">
        <ele>87.326</ele>
        <time>2018-04-08T12:29:24Z</time>
      </trkpt>
      <trkpt lat="36.765036" lon="-4.426551">
        <ele>87.215</ele>
        <time>2018-04-08T12:29:29Z</time>
      </trkpt>
      <trkpt lat="36.765071" lon="-4.426602">
        <ele>86.294</ele>
        <time>2018-04-08T12:29:34Z</time>
      </trkpt>
      <trkpt lat="36.765113" lon="-4.426644">
        <ele>86.085</ele>
        <time>2018-04-08T12:29:40Z</time>
      </trkpt>
      <trkpt lat="36.765157" lon="-4.426669">
        <ele>85.713</ele>
        <time>2018-04-08T12:29:45Z</time>
      </trkpt>
      <trkpt lat="36.765203" lon="-4.426689">
        <ele>85.443</ele>
        <time>2018-04-08T12:29:50Z</time>
      </trkpt>
      <trkpt lat="36.765249" lon="-4.426692">
        <ele>84.907</ele>
        <time>2018-04-08T12:29:55Z</time>
      </trkpt>
      <trkpt lat="36.765304" lon="-4.426694">
        <ele>85.608</ele>
        <time>2018-04-08T12:30:01Z</time>
      </trkpt>
      <trkpt lat="36.765347" lon="-4.426672">
        <ele>85.253</ele>
        <time>2018-04-08T12:30:06Z</time>
      </trkpt>
      <trkpt lat="36.765389" lon="-4.426636">
        <ele>86.634</ele>
        <time>2018-04-08T12:30:12Z</time>
      </trkpt>
      <trkpt lat="36.765426" lon="-4.426588">
        <ele>87.279</ele>
        <time>2018-04-08T12:30:17Z</time>
      </trkpt>
      <trkpt lat="36.765448" lon="-4.426537">
        <ele>87.844</ele>
        <time>2018-04-08T12:30:22Z</time>
      </trkpt>
      <trkpt lat="36.765459" lon="-4.426478">
        <ele>89.258</ele>
        <time>2018-04-08T12:30:27Z</time>
      </trkpt>
      <trkpt lat="36.765467" lon="-4.426419">
        <ele>87.547</ele>
        <time>2018-04-08T12:30:32Z</time>
      </trkpt>
      <trkpt lat="36.765472" lon="-4.426356">
        <ele>86.736</ele>
        <time>2018-04-08T12:30:38Z</time>
      </trkpt>
      <trkpt lat="36.765479" lon="-4.426291">
        <ele>84.997</ele>
        <time>2018-04-08T12:30:44Z</time>
      </trkpt>
      <trkpt lat="36.765491" lon="-4.426235">
        <ele>84.523</ele>
        <time>2018-04-08T12:30:49Z</time>
      </trkpt>
      <trkpt lat="36.765498" lon="-4.426172">
        <ele>83.483</ele>
        <time>2018-04-08T12:30:55Z</time>
      </trkpt>
      <trkpt lat="36.765503" lon="-4.426108">
        <ele>82.511</ele>
        <time>2018-04-08T12:31:01Z</time>
      </trkpt>
      <trkpt lat="36.765500" lon="-4.426041">
        <ele>82.108</ele>
        <time>2018-04-08T12:31:07Z</time>
      </trkpt>
      <trkpt lat="36.765479" lon="-4.425987">
        <ele>82.014</ele>
        <time>2018-04-08T12:31:18Z</time>
      </trkpt>
      <trkpt lat="36.765473" lon="-4.425930">
        <ele>82.045</ele>
        <time>2018-04-08T12:31:25Z</time>
      </trkpt>
      <trkpt lat="36.765476" lon="-4.425867">
        <ele>81.010</ele>
        <time>2018-04-08T12:31:30Z</time>
      </trkpt>
      <trkpt lat="36.765479" lon="-4.425808">
        <ele>80.155</ele>
        <time>2018-04-08T12:31:35Z</time>
      </trkpt>
      <trkpt lat="36.765501" lon="-4.425748">
        <ele>81.239</ele>
        <time>2018-04-08T12:31:41Z</time>
      </trkpt>
      <trkpt lat="36.765537" lon="-4.425708">
        <ele>80.748</ele>
        <time>2018-04-08T12:31:46Z</time>
      </trkpt>
      <trkpt lat="36.765581" lon="-4.425676">
        <ele>78.567</ele>
        <time>2018-04-08T12:31:52Z</time>
      </trkpt>
      <trkpt lat="36.765623" lon="-4.425650">
        <ele>77.428</ele>
        <time>2018-04-08T12:31:57Z</time>
      </trkpt>
      <trkpt lat="36.765674" lon="-4.425635">
        <ele>75.821</ele>
        <time>2018-04-08T12:32:03Z</time>
      </trkpt>
      <trkpt lat="36.765722" lon="-4.425632">
        <ele>75.741</ele>
        <time>2018-04-08T12:32:09Z</time>
      </trkpt>
      <trkpt lat="36.765771" lon="-4.425634">
        <ele>76.005</ele>
        <time>2018-04-08T12:32:15Z</time>
      </trkpt>
      <trkpt lat="36.765824" lon="-4.425632">
        <ele>75.608</ele>
        <time>2018-04-08T12:32:21Z</time>
      </trkpt>
      <trkpt lat="36.765874" lon="-4.425624">
        <ele>72.294</ele>
        <time>2018-04-08T12:32:26Z</time>
      </trkpt>
      <trkpt lat="36.765924" lon="-4.425630">
        <ele>71.895</ele>
        <time>2018-04-08T12:32:32Z</time>
      </trkpt>
      <trkpt lat="36.765977" lon="-4.425634">
        <ele>70.440</ele>
        <time>2018-04-08T12:32:38Z</time>
      </trkpt>
      <trkpt lat="36.766022" lon="-4.425633">
        <ele>71.285</ele>
        <time>2018-04-08T12:32:43Z</time>
      </trkpt>
      <trkpt lat="36.766067" lon="-4.425637">
        <ele>71.629</ele>
        <time>2018-04-08T12:33:06Z</time>
      </trkpt>
      <trkpt lat="36.766117" lon="-4.425647">
        <ele>71.438</ele>
        <time>2018-04-08T12:33:17Z</time>
      </trkpt>
      <trkpt lat="36.766161" lon="-4.425613">
        <ele>70.897</ele>
        <time>2018-04-08T12:33:22Z</time>
      </trkpt>
      <trkpt lat="36.766185" lon="-4.425565">
        <ele>69.898</ele>
        <time>2018-04-08T12:33:27Z</time>
      </trkpt>
      <trkpt lat="36.766207" lon="-4.425505">
        <ele>69.297</ele>
        <time>2018-04-08T12:33:32Z</time>
      </trkpt>
      <trkpt lat="36.766219" lon="-4.425450">
        <ele>68.623</ele>
        <time>2018-04-08T12:33:39Z</time>
      </trkpt>
      <trkpt lat="36.766212" lon="-4.425392">
        <ele>68.525</ele>
        <time>2018-04-08T12:34:06Z</time>
      </trkpt>
      <trkpt lat="36.766195" lon="-4.425324">
        <ele>69.308</ele>
        <time>2018-04-08T12:34:38Z</time>
      </trkpt>
      <trkpt lat="36.766165" lon="-4.425373">
        <ele>68.961</ele>
        <time>2018-04-08T12:34:43Z</time>
      </trkpt>
      <trkpt lat="36.766118" lon="-4.425373">
        <ele>67.582</ele>
        <time>2018-04-08T12:35:23Z</time>
      </trkpt>
      <trkpt lat="36.766160" lon="-4.425344">
        <ele>67.257</ele>
        <time>2018-04-08T12:36:56Z</time>
      </trkpt>
      <trkpt lat="36.766207" lon="-4.425332">
        <ele>65.112</ele>
        <time>2018-04-08T12:38:12Z</time>
      </trkpt>
      <trkpt lat="36.766155" lon="-4.425363">
        <ele>66.316</ele>
        <time>2018-04-08T12:38:42Z</time>
      </trkpt>
      <trkpt lat="36.766106" lon="-4.425372">
        <ele>67.065</ele>
        <time>2018-04-08T12:38:47Z</time>
      </trkpt>
      <trkpt lat="36.766060" lon="-4.425374">
        <ele>64.974</ele>
        <time>2018-04-08T12:38:53Z</time>
      </trkpt>
      <trkpt lat="36.766003" lon="-4.425365">
        <ele>65.875</ele>
        <time>2018-04-08T12:38:58Z</time>
      </trkpt>
      <trkpt lat="36.765960" lon="-4.425338">
        <ele>64.062</ele>
        <time>2018-04-08T12:39:12Z</time>
      </trkpt>
      <trkpt lat="36.765903" lon="-4.425328">
        <ele>66.483</ele>
        <time>2018-04-08T12:39:17Z</time>
      </trkpt>
      <trkpt lat="36.765856" lon="-4.425318">
        <ele>66.211</ele>
        <time>2018-04-08T12:39:23Z</time>
      </trkpt>
      <trkpt lat="36.765805" lon="-4.425307">
        <ele>65.608</ele>
        <time>2018-04-08T12:39:26Z</time>
      </trkpt>
      <trkpt lat="36.765754" lon="-4.425310">
        <ele>66.348</ele>
        <time>2018-04-08T12:39:30Z</time>
      </trkpt>
      <trkpt lat="36.765698" lon="-4.425319">
        <ele>66.649</ele>
        <time>2018-04-08T12:39:35Z</time>
      </trkpt>
      <trkpt lat="36.765652" lon="-4.425331">
        <ele>65.644</ele>
        <time>2018-04-08T12:39:41Z</time>
      </trkpt>
      <trkpt lat="36.765607" lon="-4.425357">
        <ele>64.879</ele>
        <time>2018-04-08T12:39:46Z</time>
      </trkpt>
      <trkpt lat="36.765560" lon="-4.425377">
        <ele>64.713</ele>
        <time>2018-04-08T12:39:51Z</time>
      </trkpt>
      <trkpt lat="36.765512" lon="-4.425388">
        <ele>64.442</ele>
        <time>2018-04-08T12:39:55Z</time>
      </trkpt>
      <trkpt lat="36.765465" lon="-4.425365">
        <ele>63.631</ele>
        <time>2018-04-08T12:40:03Z</time>
      </trkpt>
      <trkpt lat="36.765409" lon="-4.425380">
        <ele>62.482</ele>
        <time>2018-04-08T12:40:13Z</time>
      </trkpt>
      <trkpt lat="36.765362" lon="-4.425387">
        <ele>62.325</ele>
        <time>2018-04-08T12:40:19Z</time>
      </trkpt>
      <trkpt lat="36.765315" lon="-4.425423">
        <ele>62.826</ele>
        <time>2018-04-08T12:40:23Z</time>
      </trkpt>
      <trkpt lat="36.765275" lon="-4.425456">
        <ele>60.608</ele>
        <time>2018-04-08T12:40:48Z</time>
      </trkpt>
      <trkpt lat="36.765221" lon="-4.425468">
        <ele>60.608</ele>
        <time>2018-04-08T12:40:52Z</time>
      </trkpt>
      <trkpt lat="36.765172" lon="-4.425477">
        <ele>61.014</ele>
        <time>2018-04-08T12:40:56Z</time>
      </trkpt>
      <trkpt lat="36.765119" lon="-4.425488">
        <ele>60.665</ele>
        <time>2018-04-08T12:41:10Z</time>
      </trkpt>
      <trkpt lat="36.765072" lon="-4.425505">
        <ele>60.460</ele>
        <time>2018-04-08T12:41:14Z</time>
      </trkpt>
      <trkpt lat="36.765024" lon="-4.425503">
        <ele>60.585</ele>
        <time>2018-04-08T12:41:18Z</time>
      </trkpt>
      <trkpt lat="36.764975" lon="-4.425502">
        <ele>60.749</ele>
        <time>2018-04-08T12:41:22Z</time>
      </trkpt>
      <trkpt lat="36.764923" lon="-4.425515">
        <ele>60.568</ele>
        <time>2018-04-08T12:41:27Z</time>
      </trkpt>
      <trkpt lat="36.764875" lon="-4.425517">
        <ele>59.967</ele>
        <time>2018-04-08T12:41:32Z</time>
      </trkpt>
      <trkpt lat="36.764827" lon="-4.425537">
        <ele>59.898</ele>
        <time>2018-04-08T12:41:38Z</time>
      </trkpt>
      <trkpt lat="36.764778" lon="-4.425525">
        <ele>59.088</ele>
        <time>2018-04-08T12:42:07Z</time>
      </trkpt>
      <trkpt lat="36.764727" lon="-4.425522">
        <ele>58.724</ele>
        <time>2018-04-08T12:42:12Z</time>
      </trkpt>
      <trkpt lat="36.764683" lon="-4.425491">
        <ele>58.726</ele>
        <time>2018-04-08T12:42:15Z</time>
      </trkpt>
      <trkpt lat="36.764632" lon="-4.425468">
        <ele>58.608</ele>
        <time>2018-04-08T12:42:19Z</time>
      </trkpt>
      <trkpt lat="36.764575" lon="-4.425467">
        <ele>58.040</ele>
        <time>2018-04-08T12:42:23Z</time>
      </trkpt>
      <trkpt lat="36.764530" lon="-4.425454">
        <ele>57.851</ele>
        <time>2018-04-08T12:42:26Z</time>
      </trkpt>
      <trkpt lat="36.764488" lon="-4.425428">
        <ele>56.416</ele>
        <time>2018-04-08T12:42:29Z</time>
      </trkpt>
      <trkpt lat="36.764440" lon="-4.425400">
        <ele>56.421</ele>
        <time>2018-04-08T12:42:33Z</time>
      </trkpt>
      <trkpt lat="36.764395" lon="-4.425362">
        <ele>55.535</ele>
        <time>2018-04-08T12:42:37Z</time>
      </trkpt>
      <trkpt lat="36.764368" lon="-4.425315">
        <ele>57.394</ele>
        <time>2018-04-08T12:42:40Z</time>
      </trkpt>
      <trkpt lat="36.764332" lon="-4.425260">
        <ele>57.463</ele>
        <time>2018-04-08T12:42:47Z</time>
      </trkpt>
      <trkpt lat="36.764287" lon="-4.425243">
        <ele>56.834</ele>
        <time>2018-04-08T12:43:00Z</time>
      </trkpt>
      <trkpt lat="36.764240" lon="-4.425225">
        <ele>56.045</ele>
        <time>2018-04-08T12:43:04Z</time>
      </trkpt>
      <trkpt lat="36.764196" lon="-4.425201">
        <ele>56.347</ele>
        <time>2018-04-08T12:43:08Z</time>
      </trkpt>
      <trkpt lat="36.764136" lon="-4.425181">
        <ele>54.211</ele>
        <time>2018-04-08T12:43:11Z</time>
      </trkpt>
      <trkpt lat="36.764094" lon="-4.425154">
        <ele>54.508</ele>
        <time>2018-04-08T12:43:14Z</time>
      </trkpt>
      <trkpt lat="36.764044" lon="-4.425138">
        <ele>55.296</ele>
        <time>2018-04-08T12:43:18Z</time>
      </trkpt>
      <trkpt lat="36.763993" lon="-4.425138">
        <ele>54.497</ele>
        <time>2018-04-08T12:43:24Z</time>
      </trkpt>
      <trkpt lat="36.763939" lon="-4.425152">
        <ele>53.562</ele>
        <time>2018-04-08T12:43:31Z</time>
      </trkpt>
      <trkpt lat="36.763892" lon="-4.425160">
        <ele>51.857</ele>
        <time>2018-04-08T12:43:35Z</time>
      </trkpt>
      <trkpt lat="36.763847" lon="-4.425180">
        <ele>50.511</ele>
        <time>2018-04-08T12:43:39Z</time>
      </trkpt>
      <trkpt lat="36.763802" lon="-4.425188">
        <ele>50.660</ele>
        <time>2018-04-08T12:43:43Z</time>
      </trkpt>
      <trkpt lat="36.763754" lon="-4.425168">
        <ele>48.899</ele>
        <time>2018-04-08T12:43:48Z</time>
      </trkpt>
      <trkpt lat="36.763702" lon="-4.425160">
        <ele>47.330</ele>
        <time>2018-04-08T12:43:55Z</time>
      </trkpt>
      <trkpt lat="36.763642" lon="-4.425168">
        <ele>48.328</ele>
        <time>2018-04-08T12:43:59Z</time>
      </trkpt>
      <trkpt lat="36.763596" lon="-4.425162">
        <ele>44.489</ele>
        <time>2018-04-08T12:44:04Z</time>
      </trkpt>
      <trkpt lat="36.763538" lon="-4.425181">
        <ele>43.317</ele>
        <time>2018-04-08T12:44:09Z</time>
      </trkpt>
      <trkpt lat="36.763485" lon="-4.425201">
        <ele>43.708</ele>
        <time>2018-04-08T12:44:13Z</time>
      </trkpt>
      <trkpt lat="36.763433" lon="-4.425226">
        <ele>44.994</ele>
        <time>2018-04-08T12:44:17Z</time>
      </trkpt>
      <trkpt lat="36.763387" lon="-4.425243">
        <ele>44.675</ele>
        <time>2018-04-08T12:44:21Z</time>
      </trkpt>
      <trkpt lat="36.763343" lon="-4.425267">
        <ele>43.490</ele>
        <time>2018-04-08T12:44:25Z</time>
      </trkpt>
      <trkpt lat="36.763292" lon="-4.425308">
        <ele>46.435</ele>
        <time>2018-04-08T12:44:36Z</time>
      </trkpt>
      <trkpt lat="36.763250" lon="-4.425333">
        <ele>45.589</ele>
        <time>2018-04-08T12:45:08Z</time>
      </trkpt>
      <trkpt lat="36.763207" lon="-4.425362">
        <ele>44.548</ele>
        <time>2018-04-08T12:45:14Z</time>
      </trkpt>
      <trkpt lat="36.763159" lon="-4.425370">
        <ele>45.027</ele>
        <time>2018-04-08T12:45:17Z</time>
      </trkpt>
      <trkpt lat="36.763109" lon="-4.425380">
        <ele>44.128</ele>
        <time>2018-04-08T12:45:21Z</time>
      </trkpt>
      <trkpt lat="36.763076" lon="-4.425426">
        <ele>44.975</ele>
        <time>2018-04-08T12:45:27Z</time>
      </trkpt>
      <trkpt lat="36.763028" lon="-4.425449">
        <ele>45.028</ele>
        <time>2018-04-08T12:45:42Z</time>
      </trkpt>
      <trkpt lat="36.763013" lon="-4.425505">
        <ele>44.620</ele>
        <time>2018-04-08T12:46:02Z</time>
      </trkpt>
      <trkpt lat="36.762930" lon="-4.425553">
        <ele>44.408</ele>
        <time>2018-04-08T12:46:11Z</time>
      </trkpt>
      <trkpt lat="36.762882" lon="-4.425560">
        <ele>44.469</ele>
        <time>2018-04-08T12:46:14Z</time>
      </trkpt>
      <trkpt lat="36.762841" lon="-4.425596">
        <ele>43.890</ele>
        <time>2018-04-08T12:46:18Z</time>
      </trkpt>
      <trkpt lat="36.762792" lon="-4.425622">
        <ele>44.185</ele>
        <time>2018-04-08T12:46:22Z</time>
      </trkpt>
      <trkpt lat="36.762746" lon="-4.425627">
        <ele>44.090</ele>
        <time>2018-04-08T12:46:25Z</time>
      </trkpt>
      <trkpt lat="36.762696" lon="-4.425600">
        <ele>43.774</ele>
        <time>2018-04-08T12:46:29Z</time>
      </trkpt>
      <trkpt lat="36.762642" lon="-4.425570">
        <ele>42.963</ele>
        <time>2018-04-08T12:46:32Z</time>
      </trkpt>
      <trkpt lat="36.762628" lon="-4.425514">
        <ele>42.992</ele>
        <time>2018-04-08T12:46:37Z</time>
      </trkpt>
      <trkpt lat="36.762587" lon="-4.425476">
        <ele>42.773</ele>
        <time>2018-04-08T12:46:42Z</time>
      </trkpt>
      <trkpt lat="36.762544" lon="-4.425453">
        <ele>42.566</ele>
        <time>2018-04-08T12:46:53Z</time>
      </trkpt>
      <trkpt lat="36.762496" lon="-4.425458">
        <ele>42.129</ele>
        <time>2018-04-08T12:46:58Z</time>
      </trkpt>
      <trkpt lat="36.762456" lon="-4.425393">
        <ele>42.021</ele>
        <time>2018-04-08T12:47:16Z</time>
      </trkpt>
      <trkpt lat="36.762410" lon="-4.425376">
        <ele>41.708</ele>
        <time>2018-04-08T12:47:30Z</time>
      </trkpt>
      <trkpt lat="36.762357" lon="-4.425368">
        <ele>41.398</ele>
        <time>2018-04-08T12:47:33Z</time>
      </trkpt>
      <trkpt lat="36.762299" lon="-4.425366">
        <ele>41.279</ele>
        <time>2018-04-08T12:47:36Z</time>
      </trkpt>
      <trkpt lat="36.762259" lon="-4.425333">
        <ele>41.044</ele>
        <time>2018-04-08T12:47:39Z</time>
      </trkpt>
      <trkpt lat="36.762204" lon="-4.425316">
        <ele>41.439</ele>
        <time>2018-04-08T12:47:43Z</time>
      </trkpt>
      <trkpt lat="36.762147" lon="-4.425326">
        <ele>40.923</ele>
        <time>2018-04-08T12:47:46Z</time>
      </trkpt>
      <trkpt lat="36.762094" lon="-4.425335">
        <ele>40.692</ele>
        <time>2018-04-08T12:47:51Z</time>
      </trkpt>
      <trkpt lat="36.762032" lon="-4.425347">
        <ele>40.841</ele>
        <time>2018-04-08T12:47:54Z</time>
      </trkpt>
      <trkpt lat="36.761979" lon="-4.425344">
        <ele>40.992</ele>
        <time>2018-04-08T12:47:56Z</time>
      </trkpt>
      <trkpt lat="36.761937" lon="-4.425371">
        <ele>40.674</ele>
        <time>2018-04-08T12:48:02Z</time>
      </trkpt>
      <trkpt lat="36.761877" lon="-4.425370">
        <ele>40.856</ele>
        <time>2018-04-08T12:48:07Z</time>
      </trkpt>
      <trkpt lat="36.761830" lon="-4.425367">
        <ele>39.821</ele>
        <time>2018-04-08T12:48:11Z</time>
      </trkpt>
      <trkpt lat="36.761785" lon="-4.425368">
        <ele>40.808</ele>
        <time>2018-04-08T12:48:33Z</time>
      </trkpt>
      <trkpt lat="36.761747" lon="-4.425402">
        <ele>40.969</ele>
        <time>2018-04-08T12:48:39Z</time>
      </trkpt>
      <trkpt lat="36.761695" lon="-4.425412">
        <ele>40.460</ele>
        <time>2018-04-08T12:48:43Z</time>
      </trkpt>
      <trkpt lat="36.761721" lon="-4.425487">
        <ele>42.345</ele>
        <time>2018-04-08T12:49:30Z</time>
      </trkpt>
      <trkpt lat="36.761752" lon="-4.425546">
        <ele>43.050</ele>
        <time>2018-04-08T12:49:41Z</time>
      </trkpt>
      <trkpt lat="36.761705" lon="-4.425536">
        <ele>42.434</ele>
        <time>2018-04-08T12:49:53Z</time>
      </trkpt>
      <trkpt lat="36.761668" lon="-4.425491">
        <ele>41.133</ele>
        <time>2018-04-08T12:50:30Z</time>
      </trkpt>
      <trkpt lat="36.761623" lon="-4.425495">
        <ele>39.512</ele>
        <time>2018-04-08T12:50:53Z</time>
      </trkpt>
      <trkpt lat="36.761597" lon="-4.425449">
        <ele>40.153</ele>
        <time>2018-04-08T12:51:15Z</time>
      </trkpt>
      <trkpt lat="36.761571" lon="-4.425396">
        <ele>37.454</ele>
        <time>2018-04-08T12:51:25Z</time>
      </trkpt>
      <trkpt lat="36.761532" lon="-4.425366">
        <ele>34.556</ele>
        <time>2018-04-08T12:51:29Z</time>
      </trkpt>
      <trkpt lat="36.761493" lon="-4.425336">
        <ele>34.611</ele>
        <time>2018-04-08T12:51:33Z</time>
      </trkpt>
      <trkpt lat="36.761453" lon="-4.425301">
        <ele>34.208</ele>
        <time>2018-04-08T12:51:38Z</time>
      </trkpt>
      <trkpt lat="36.761406" lon="-4.425312">
        <ele>34.087</ele>
        <time>2018-04-08T12:51:44Z</time>
      </trkpt>
      <trkpt lat="36.761371" lon="-4.425358">
        <ele>36.538</ele>
        <time>2018-04-08T12:51:49Z</time>
      </trkpt>
      <trkpt lat="36.761374" lon="-4.425426">
        <ele>35.733</ele>
        <time>2018-04-08T12:52:05Z</time>
      </trkpt>
      <trkpt lat="36.761323" lon="-4.425440">
        <ele>35.638</ele>
        <time>2018-04-08T12:52:10Z</time>
      </trkpt>
      <trkpt lat="36.761263" lon="-4.425458">
        <ele>33.912</ele>
        <time>2018-04-08T12:52:13Z</time>
      </trkpt>
      <trkpt lat="36.761217" lon="-4.425490">
        <ele>34.021</ele>
        <time>2018-04-08T12:52:16Z</time>
      </trkpt>
      <trkpt lat="36.761172" lon="-4.425505">
        <ele>35.970</ele>
        <time>2018-04-08T12:52:19Z</time>
      </trkpt>
      <trkpt lat="36.761115" lon="-4.425496">
        <ele>34.481</ele>
        <time>2018-04-08T12:52:23Z</time>
      </trkpt>
      <trkpt lat="36.761067" lon="-4.425492">
        <ele>33.916</ele>
        <time>2018-04-08T12:52:26Z</time>
      </trkpt>
      <trkpt lat="36.761011" lon="-4.425509">
        <ele>33.876</ele>
        <time>2018-04-08T12:52:30Z</time>
      </trkpt>
      <trkpt lat="36.760969" lon="-4.425535">
        <ele>33.613</ele>
        <time>2018-04-08T12:52:34Z</time>
      </trkpt>
      <trkpt lat="36.760924" lon="-4.425569">
        <ele>33.708</ele>
        <time>2018-04-08T12:52:38Z</time>
      </trkpt>
      <trkpt lat="36.760886" lon="-4.425608">
        <ele>34.443</ele>
        <time>2018-04-08T12:52:42Z</time>
      </trkpt>
      <trkpt lat="36.760842" lon="-4.425648">
        <ele>32.774</ele>
        <time>2018-04-08T12:52:47Z</time>
      </trkpt>
      <trkpt lat="36.760811" lon="-4.425689">
        <ele>32.179</ele>
        <time>2018-04-08T12:52:51Z</time>
      </trkpt>
      <trkpt lat="36.760778" lon="-4.425736">
        <ele>34.934</ele>
        <time>2018-04-08T12:52:57Z</time>
      </trkpt>
      <trkpt lat="36.760740" lon="-4.425770">
        <ele>34.718</ele>
        <time>2018-04-08T12:53:02Z</time>
      </trkpt>
      <trkpt lat="36.760696" lon="-4.425801">
        <ele>34.587</ele>
        <time>2018-04-08T12:53:08Z</time>
      </trkpt>
      <trkpt lat="36.760645" lon="-4.425816">
        <ele>33.566</ele>
        <time>2018-04-08T12:53:14Z</time>
      </trkpt>
      <trkpt lat="36.760626" lon="-4.425760">
        <ele>33.547</ele>
        <time>2018-04-08T12:53:24Z</time>
      </trkpt>
      <trkpt lat="36.760659" lon="-4.425716">
        <ele>33.574</ele>
        <time>2018-04-08T12:53:51Z</time>
      </trkpt>
      <trkpt lat="36.760672" lon="-4.425658">
        <ele>34.556</ele>
        <time>2018-04-08T12:57:35Z</time>
      </trkpt>
      <trkpt lat="36.760655" lon="-4.425716">
        <ele>32.021</ele>
        <time>2018-04-08T12:57:43Z</time>
      </trkpt>
      <trkpt lat="36.760610" lon="-4.425729">
        <ele>33.008</ele>
        <time>2018-04-08T12:57:58Z</time>
      </trkpt>
    </trkseg>
  </trk>
</gpx>
